<?xml version="1.0" encoding="UTF-8" standalone="no" ?>
<gpx xmlns="http://www.topografix.com/GPX/1/1" xmlns:xsi="http://www.w3.org/2001/XMLSchema-instance" xsi:schemaLocation="http://www.topografix.com/GPX/1/1 http://www.topografix.com/GPX/1/1/gpx.xsd" version="1.1" creator="VisuGPX - https://www.visugpx.com">
  <metadata>
    <name>Cahuzac à Riscle (8)</name>
    <desc><![CDATA[Septième tronçon tronçon du sentier de l'Adour entre Cahuzac et Riscle. Ce parcours a été fait en Aller-Retour depuis Cahuzac. Seul l'Aller figure ici
]]></desc>
  </metadata>
  <trk>
    <name><![CDATA[1 mars 2021 à 09:20:56]]></name>
    <cmt><![CDATA[1 mars 2021 à 09:20:56]]></cmt>
    <trkseg>
      <trkpt lat="43.64082" lon="-0.02135">
        <ele>123</ele>
        <time>2021-03-01T08:20:56Z</time>
      </trkpt>
      <trkpt lat="43.64072" lon="-0.02135">
        <ele>123</ele>
        <time>2021-03-01T08:21:37Z</time>
      </trkpt>
      <trkpt lat="43.64065" lon="-0.02134">
        <ele>123</ele>
        <time>2021-03-01T08:22:18Z</time>
      </trkpt>
      <trkpt lat="43.64064" lon="-0.02141">
        <ele>123</ele>
        <time>2021-03-01T08:22:37Z</time>
      </trkpt>
      <trkpt lat="43.64058" lon="-0.02159">
        <ele>124</ele>
        <time>2021-03-01T08:22:56Z</time>
      </trkpt>
      <trkpt lat="43.64055" lon="-0.02175">
        <ele>124</ele>
        <time>2021-03-01T08:23:04Z</time>
      </trkpt>
      <trkpt lat="43.6404" lon="-0.02202">
        <ele>126</ele>
        <time>2021-03-01T08:23:27Z</time>
      </trkpt>
      <trkpt lat="43.64034" lon="-0.02223">
        <ele>126</ele>
        <time>2021-03-01T08:23:38Z</time>
      </trkpt>
      <trkpt lat="43.64036" lon="-0.0223">
        <ele>126</ele>
        <time>2021-03-01T08:23:42Z</time>
      </trkpt>
      <trkpt lat="43.6404" lon="-0.02236">
        <ele>126</ele>
        <time>2021-03-01T08:23:45Z</time>
      </trkpt>
      <trkpt lat="43.64058" lon="-0.02255">
        <ele>127</ele>
        <time>2021-03-01T08:24:00Z</time>
      </trkpt>
      <trkpt lat="43.64067" lon="-0.02273">
        <ele>127</ele>
        <time>2021-03-01T08:24:13Z</time>
      </trkpt>
      <trkpt lat="43.64068" lon="-0.0228">
        <ele>127</ele>
        <time>2021-03-01T08:24:18Z</time>
      </trkpt>
      <trkpt lat="43.64071" lon="-0.02285">
        <ele>127</ele>
        <time>2021-03-01T08:24:22Z</time>
      </trkpt>
      <trkpt lat="43.64074" lon="-0.02297">
        <ele>127</ele>
        <time>2021-03-01T08:24:29Z</time>
      </trkpt>
      <trkpt lat="43.64078" lon="-0.02302">
        <ele>127</ele>
        <time>2021-03-01T08:24:34Z</time>
      </trkpt>
      <trkpt lat="43.64083" lon="-0.02305">
        <ele>126</ele>
        <time>2021-03-01T08:24:38Z</time>
      </trkpt>
      <trkpt lat="43.64089" lon="-0.02306">
        <ele>126</ele>
        <time>2021-03-01T08:24:42Z</time>
      </trkpt>
      <trkpt lat="43.64093" lon="-0.02303">
        <ele>126</ele>
        <time>2021-03-01T08:24:46Z</time>
      </trkpt>
      <trkpt lat="43.64099" lon="-0.02301">
        <ele>127</ele>
        <time>2021-03-01T08:25:00Z</time>
      </trkpt>
      <trkpt lat="43.6411" lon="-0.02301">
        <ele>126</ele>
        <time>2021-03-01T08:25:10Z</time>
      </trkpt>
      <trkpt lat="43.64114" lon="-0.02301">
        <ele>126</ele>
        <time>2021-03-01T08:25:13Z</time>
      </trkpt>
      <trkpt lat="43.64118" lon="-0.023">
        <ele>126</ele>
        <time>2021-03-01T08:25:17Z</time>
      </trkpt>
      <trkpt lat="43.64152" lon="-0.02301">
        <ele>126</ele>
        <time>2021-03-01T08:25:43Z</time>
      </trkpt>
      <trkpt lat="43.64162" lon="-0.02303">
        <ele>126</ele>
        <time>2021-03-01T08:25:51Z</time>
      </trkpt>
      <trkpt lat="43.64172" lon="-0.02301">
        <ele>126</ele>
        <time>2021-03-01T08:25:59Z</time>
      </trkpt>
      <trkpt lat="43.64183" lon="-0.02302">
        <ele>126</ele>
        <time>2021-03-01T08:26:07Z</time>
      </trkpt>
      <trkpt lat="43.64214" lon="-0.02299">
        <ele>126</ele>
        <time>2021-03-01T08:26:31Z</time>
      </trkpt>
      <trkpt lat="43.64225" lon="-0.02299">
        <ele>126</ele>
        <time>2021-03-01T08:26:39Z</time>
      </trkpt>
      <trkpt lat="43.64245" lon="-0.02295">
        <ele>126</ele>
        <time>2021-03-01T08:26:56Z</time>
      </trkpt>
      <trkpt lat="43.6427" lon="-0.023">
        <ele>126</ele>
        <time>2021-03-01T08:27:15Z</time>
      </trkpt>
      <trkpt lat="43.64286" lon="-0.02296">
        <ele>126</ele>
        <time>2021-03-01T08:27:27Z</time>
      </trkpt>
      <trkpt lat="43.64306" lon="-0.02299">
        <ele>125</ele>
        <time>2021-03-01T08:27:47Z</time>
      </trkpt>
      <trkpt lat="43.64332" lon="-0.0231">
        <ele>125</ele>
        <time>2021-03-01T08:28:09Z</time>
      </trkpt>
      <trkpt lat="43.64351" lon="-0.02324">
        <ele>125</ele>
        <time>2021-03-01T08:28:25Z</time>
      </trkpt>
      <trkpt lat="43.64389" lon="-0.02347">
        <ele>125</ele>
        <time>2021-03-01T08:28:55Z</time>
      </trkpt>
      <trkpt lat="43.64405" lon="-0.02356">
        <ele>125</ele>
        <time>2021-03-01T08:29:07Z</time>
      </trkpt>
      <trkpt lat="43.64409" lon="-0.02359">
        <ele>125</ele>
        <time>2021-03-01T08:29:15Z</time>
      </trkpt>
      <trkpt lat="43.64415" lon="-0.02363">
        <ele>125</ele>
        <time>2021-03-01T08:29:49Z</time>
      </trkpt>
      <trkpt lat="43.64431" lon="-0.02377">
        <ele>125</ele>
        <time>2021-03-01T08:30:03Z</time>
      </trkpt>
      <trkpt lat="43.64455" lon="-0.02385">
        <ele>125</ele>
        <time>2021-03-01T08:30:22Z</time>
      </trkpt>
      <trkpt lat="43.64463" lon="-0.02381">
        <ele>125</ele>
        <time>2021-03-01T08:30:29Z</time>
      </trkpt>
      <trkpt lat="43.64468" lon="-0.02377">
        <ele>125</ele>
        <time>2021-03-01T08:30:33Z</time>
      </trkpt>
      <trkpt lat="43.64491" lon="-0.0233">
        <ele>125</ele>
        <time>2021-03-01T08:31:04Z</time>
      </trkpt>
      <trkpt lat="43.64496" lon="-0.02318">
        <ele>124</ele>
        <time>2021-03-01T08:31:12Z</time>
      </trkpt>
      <trkpt lat="43.645" lon="-0.02314">
        <ele>124</ele>
        <time>2021-03-01T08:31:16Z</time>
      </trkpt>
      <trkpt lat="43.64504" lon="-0.02312">
        <ele>124</ele>
        <time>2021-03-01T08:31:19Z</time>
      </trkpt>
      <trkpt lat="43.64508" lon="-0.02312">
        <ele>124</ele>
        <time>2021-03-01T08:31:22Z</time>
      </trkpt>
      <trkpt lat="43.64516" lon="-0.02321">
        <ele>124</ele>
        <time>2021-03-01T08:31:30Z</time>
      </trkpt>
      <trkpt lat="43.64532" lon="-0.02375">
        <ele>124</ele>
        <time>2021-03-01T08:32:02Z</time>
      </trkpt>
      <trkpt lat="43.64533" lon="-0.02381">
        <ele>124</ele>
        <time>2021-03-01T08:32:05Z</time>
      </trkpt>
      <trkpt lat="43.6454" lon="-0.02397">
        <ele>124</ele>
        <time>2021-03-01T08:32:15Z</time>
      </trkpt>
      <trkpt lat="43.64545" lon="-0.02409">
        <ele>124</ele>
        <time>2021-03-01T08:32:23Z</time>
      </trkpt>
      <trkpt lat="43.6455" lon="-0.02419">
        <ele>124</ele>
        <time>2021-03-01T08:32:30Z</time>
      </trkpt>
      <trkpt lat="43.64555" lon="-0.0243">
        <ele>125</ele>
        <time>2021-03-01T08:32:37Z</time>
      </trkpt>
      <trkpt lat="43.64564" lon="-0.02445">
        <ele>125</ele>
        <time>2021-03-01T08:32:48Z</time>
      </trkpt>
      <trkpt lat="43.64568" lon="-0.02454">
        <ele>125</ele>
        <time>2021-03-01T08:32:54Z</time>
      </trkpt>
      <trkpt lat="43.64596" lon="-0.02501">
        <ele>125</ele>
        <time>2021-03-01T08:33:27Z</time>
      </trkpt>
      <trkpt lat="43.64618" lon="-0.02539">
        <ele>125</ele>
        <time>2021-03-01T08:33:54Z</time>
      </trkpt>
      <trkpt lat="43.64621" lon="-0.02546">
        <ele>125</ele>
        <time>2021-03-01T08:33:58Z</time>
      </trkpt>
      <trkpt lat="43.64627" lon="-0.02557">
        <ele>125</ele>
        <time>2021-03-01T08:34:06Z</time>
      </trkpt>
      <trkpt lat="43.64636" lon="-0.02588">
        <ele>125</ele>
        <time>2021-03-01T08:34:25Z</time>
      </trkpt>
      <trkpt lat="43.64642" lon="-0.02602">
        <ele>125</ele>
        <time>2021-03-01T08:34:34Z</time>
      </trkpt>
      <trkpt lat="43.64646" lon="-0.02606">
        <ele>125</ele>
        <time>2021-03-01T08:34:37Z</time>
      </trkpt>
      <trkpt lat="43.64673" lon="-0.02649">
        <ele>125</ele>
        <time>2021-03-01T08:35:08Z</time>
      </trkpt>
      <trkpt lat="43.64675" lon="-0.02655">
        <ele>125</ele>
        <time>2021-03-01T08:35:11Z</time>
      </trkpt>
      <trkpt lat="43.64683" lon="-0.02664">
        <ele>125</ele>
        <time>2021-03-01T08:35:19Z</time>
      </trkpt>
      <trkpt lat="43.64695" lon="-0.02685">
        <ele>125</ele>
        <time>2021-03-01T08:35:35Z</time>
      </trkpt>
      <trkpt lat="43.64698" lon="-0.02693">
        <ele>125</ele>
        <time>2021-03-01T08:35:39Z</time>
      </trkpt>
      <trkpt lat="43.64701" lon="-0.02697">
        <ele>125</ele>
        <time>2021-03-01T08:35:42Z</time>
      </trkpt>
      <trkpt lat="43.64708" lon="-0.02706">
        <ele>125</ele>
        <time>2021-03-01T08:35:49Z</time>
      </trkpt>
      <trkpt lat="43.6471" lon="-0.0271">
        <ele>125</ele>
        <time>2021-03-01T08:35:52Z</time>
      </trkpt>
      <trkpt lat="43.64736" lon="-0.02747">
        <ele>125</ele>
        <time>2021-03-01T08:36:20Z</time>
      </trkpt>
      <trkpt lat="43.64748" lon="-0.02766">
        <ele>125</ele>
        <time>2021-03-01T08:36:34Z</time>
      </trkpt>
      <trkpt lat="43.64754" lon="-0.02775">
        <ele>125</ele>
        <time>2021-03-01T08:36:41Z</time>
      </trkpt>
      <trkpt lat="43.64757" lon="-0.02781">
        <ele>125</ele>
        <time>2021-03-01T08:36:45Z</time>
      </trkpt>
      <trkpt lat="43.64762" lon="-0.02785">
        <ele>125</ele>
        <time>2021-03-01T08:36:49Z</time>
      </trkpt>
      <trkpt lat="43.64781" lon="-0.02814">
        <ele>125</ele>
        <time>2021-03-01T08:37:10Z</time>
      </trkpt>
      <trkpt lat="43.64788" lon="-0.02822">
        <ele>125</ele>
        <time>2021-03-01T08:37:17Z</time>
      </trkpt>
      <trkpt lat="43.64797" lon="-0.02837">
        <ele>125</ele>
        <time>2021-03-01T08:37:28Z</time>
      </trkpt>
      <trkpt lat="43.64803" lon="-0.02844">
        <ele>125</ele>
        <time>2021-03-01T08:37:48Z</time>
      </trkpt>
      <trkpt lat="43.64805" lon="-0.0285">
        <ele>125</ele>
        <time>2021-03-01T08:37:52Z</time>
      </trkpt>
      <trkpt lat="43.6481" lon="-0.02859">
        <ele>125</ele>
        <time>2021-03-01T08:37:58Z</time>
      </trkpt>
      <trkpt lat="43.64815" lon="-0.02873">
        <ele>125</ele>
        <time>2021-03-01T08:38:07Z</time>
      </trkpt>
      <trkpt lat="43.64818" lon="-0.02885">
        <ele>124</ele>
        <time>2021-03-01T08:38:15Z</time>
      </trkpt>
      <trkpt lat="43.64819" lon="-0.0289">
        <ele>124</ele>
        <time>2021-03-01T08:38:18Z</time>
      </trkpt>
      <trkpt lat="43.64821" lon="-0.02895">
        <ele>124</ele>
        <time>2021-03-01T08:38:21Z</time>
      </trkpt>
      <trkpt lat="43.64835" lon="-0.02952">
        <ele>124</ele>
        <time>2021-03-01T08:38:54Z</time>
      </trkpt>
      <trkpt lat="43.64836" lon="-0.02957">
        <ele>124</ele>
        <time>2021-03-01T08:38:57Z</time>
      </trkpt>
      <trkpt lat="43.64836" lon="-0.02965">
        <ele>124</ele>
        <time>2021-03-01T08:39:01Z</time>
      </trkpt>
      <trkpt lat="43.64842" lon="-0.02986">
        <ele>124</ele>
        <time>2021-03-01T08:39:13Z</time>
      </trkpt>
      <trkpt lat="43.64844" lon="-0.02997">
        <ele>124</ele>
        <time>2021-03-01T08:39:19Z</time>
      </trkpt>
      <trkpt lat="43.6485" lon="-0.03021">
        <ele>124</ele>
        <time>2021-03-01T08:39:32Z</time>
      </trkpt>
      <trkpt lat="43.64852" lon="-0.03032">
        <ele>124</ele>
        <time>2021-03-01T08:39:39Z</time>
      </trkpt>
      <trkpt lat="43.64853" lon="-0.03037">
        <ele>124</ele>
        <time>2021-03-01T08:39:42Z</time>
      </trkpt>
      <trkpt lat="43.6486" lon="-0.03066">
        <ele>125</ele>
        <time>2021-03-01T08:39:59Z</time>
      </trkpt>
      <trkpt lat="43.64862" lon="-0.03072">
        <ele>125</ele>
        <time>2021-03-01T08:40:03Z</time>
      </trkpt>
      <trkpt lat="43.64873" lon="-0.03087">
        <ele>125</ele>
        <time>2021-03-01T08:40:14Z</time>
      </trkpt>
      <trkpt lat="43.64895" lon="-0.031">
        <ele>125</ele>
        <time>2021-03-01T08:40:31Z</time>
      </trkpt>
      <trkpt lat="43.64933" lon="-0.03125">
        <ele>124</ele>
        <time>2021-03-01T08:41:03Z</time>
      </trkpt>
      <trkpt lat="43.64942" lon="-0.0313">
        <ele>124</ele>
        <time>2021-03-01T08:41:10Z</time>
      </trkpt>
      <trkpt lat="43.64951" lon="-0.03136">
        <ele>124</ele>
        <time>2021-03-01T08:41:18Z</time>
      </trkpt>
      <trkpt lat="43.64975" lon="-0.03156">
        <ele>124</ele>
        <time>2021-03-01T08:41:39Z</time>
      </trkpt>
      <trkpt lat="43.6498" lon="-0.03158">
        <ele>124</ele>
        <time>2021-03-01T08:41:43Z</time>
      </trkpt>
      <trkpt lat="43.64984" lon="-0.03162">
        <ele>124</ele>
        <time>2021-03-01T08:41:47Z</time>
      </trkpt>
      <trkpt lat="43.64996" lon="-0.0317">
        <ele>124</ele>
        <time>2021-03-01T08:41:57Z</time>
      </trkpt>
      <trkpt lat="43.65013" lon="-0.03186">
        <ele>124</ele>
        <time>2021-03-01T08:42:12Z</time>
      </trkpt>
      <trkpt lat="43.65018" lon="-0.03188">
        <ele>124</ele>
        <time>2021-03-01T08:42:16Z</time>
      </trkpt>
      <trkpt lat="43.6503" lon="-0.03198">
        <ele>123</ele>
        <time>2021-03-01T08:42:26Z</time>
      </trkpt>
      <trkpt lat="43.6507" lon="-0.03219">
        <ele>123</ele>
        <time>2021-03-01T08:42:57Z</time>
      </trkpt>
      <trkpt lat="43.65093" lon="-0.03234">
        <ele>123</ele>
        <time>2021-03-01T08:43:17Z</time>
      </trkpt>
      <trkpt lat="43.65137" lon="-0.03247">
        <ele>123</ele>
        <time>2021-03-01T08:43:50Z</time>
      </trkpt>
      <trkpt lat="43.65177" lon="-0.03256">
        <ele>123</ele>
        <time>2021-03-01T08:44:21Z</time>
      </trkpt>
      <trkpt lat="43.65189" lon="-0.03262">
        <ele>123</ele>
        <time>2021-03-01T08:44:31Z</time>
      </trkpt>
      <trkpt lat="43.65214" lon="-0.03282">
        <ele>123</ele>
        <time>2021-03-01T08:44:53Z</time>
      </trkpt>
      <trkpt lat="43.65223" lon="-0.0329">
        <ele>123</ele>
        <time>2021-03-01T08:45:01Z</time>
      </trkpt>
      <trkpt lat="43.65248" lon="-0.03309">
        <ele>122</ele>
        <time>2021-03-01T08:45:24Z</time>
      </trkpt>
      <trkpt lat="43.65256" lon="-0.03314">
        <ele>123</ele>
        <time>2021-03-01T08:45:44Z</time>
      </trkpt>
      <trkpt lat="43.65259" lon="-0.03317">
        <ele>122</ele>
        <time>2021-03-01T08:45:48Z</time>
      </trkpt>
      <trkpt lat="43.65263" lon="-0.03321">
        <ele>122</ele>
        <time>2021-03-01T08:45:53Z</time>
      </trkpt>
      <trkpt lat="43.65268" lon="-0.03325">
        <ele>122</ele>
        <time>2021-03-01T08:45:57Z</time>
      </trkpt>
      <trkpt lat="43.65276" lon="-0.0333">
        <ele>122</ele>
        <time>2021-03-01T08:46:03Z</time>
      </trkpt>
      <trkpt lat="43.65284" lon="-0.0334">
        <ele>122</ele>
        <time>2021-03-01T08:46:11Z</time>
      </trkpt>
      <trkpt lat="43.65288" lon="-0.03344">
        <ele>122</ele>
        <time>2021-03-01T08:46:15Z</time>
      </trkpt>
      <trkpt lat="43.65306" lon="-0.03378">
        <ele>122</ele>
        <time>2021-03-01T08:46:39Z</time>
      </trkpt>
      <trkpt lat="43.65321" lon="-0.03417">
        <ele>122</ele>
        <time>2021-03-01T08:47:04Z</time>
      </trkpt>
      <trkpt lat="43.65321" lon="-0.03424">
        <ele>122</ele>
        <time>2021-03-01T08:47:08Z</time>
      </trkpt>
      <trkpt lat="43.65319" lon="-0.0343">
        <ele>122</ele>
        <time>2021-03-01T08:47:12Z</time>
      </trkpt>
      <trkpt lat="43.65315" lon="-0.03433">
        <ele>122</ele>
        <time>2021-03-01T08:47:16Z</time>
      </trkpt>
      <trkpt lat="43.65305" lon="-0.03438">
        <ele>122</ele>
        <time>2021-03-01T08:47:24Z</time>
      </trkpt>
      <trkpt lat="43.65273" lon="-0.03469">
        <ele>122</ele>
        <time>2021-03-01T08:47:54Z</time>
      </trkpt>
      <trkpt lat="43.65262" lon="-0.03477">
        <ele>122</ele>
        <time>2021-03-01T08:48:03Z</time>
      </trkpt>
      <trkpt lat="43.65258" lon="-0.03481">
        <ele>122</ele>
        <time>2021-03-01T08:48:07Z</time>
      </trkpt>
      <trkpt lat="43.65245" lon="-0.03489">
        <ele>122</ele>
        <time>2021-03-01T08:48:19Z</time>
      </trkpt>
      <trkpt lat="43.65232" lon="-0.035">
        <ele>123</ele>
        <time>2021-03-01T08:48:30Z</time>
      </trkpt>
      <trkpt lat="43.6523" lon="-0.03505">
        <ele>123</ele>
        <time>2021-03-01T08:48:34Z</time>
      </trkpt>
      <trkpt lat="43.65228" lon="-0.03511">
        <ele>122</ele>
        <time>2021-03-01T08:48:39Z</time>
      </trkpt>
      <trkpt lat="43.65222" lon="-0.0351">
        <ele>122</ele>
        <time>2021-03-01T08:49:15Z</time>
      </trkpt>
      <trkpt lat="43.65188" lon="-0.03538">
        <ele>122</ele>
        <time>2021-03-01T08:49:47Z</time>
      </trkpt>
      <trkpt lat="43.65183" lon="-0.0354">
        <ele>122</ele>
        <time>2021-03-01T08:49:51Z</time>
      </trkpt>
      <trkpt lat="43.65177" lon="-0.03546">
        <ele>122</ele>
        <time>2021-03-01T08:49:57Z</time>
      </trkpt>
      <trkpt lat="43.65138" lon="-0.03574">
        <ele>122</ele>
        <time>2021-03-01T08:50:30Z</time>
      </trkpt>
      <trkpt lat="43.65111" lon="-0.03594">
        <ele>123</ele>
        <time>2021-03-01T08:50:54Z</time>
      </trkpt>
      <trkpt lat="43.65108" lon="-0.03595">
        <ele>123</ele>
        <time>2021-03-01T08:50:57Z</time>
      </trkpt>
      <trkpt lat="43.65096" lon="-0.03605">
        <ele>123</ele>
        <time>2021-03-01T08:51:06Z</time>
      </trkpt>
      <trkpt lat="43.65059" lon="-0.0363">
        <ele>123</ele>
        <time>2021-03-01T08:51:39Z</time>
      </trkpt>
      <trkpt lat="43.65036" lon="-0.0365">
        <ele>123</ele>
        <time>2021-03-01T08:52:00Z</time>
      </trkpt>
      <trkpt lat="43.65035" lon="-0.03657">
        <ele>123</ele>
        <time>2021-03-01T08:52:32Z</time>
      </trkpt>
      <trkpt lat="43.65038" lon="-0.03669">
        <ele>123</ele>
        <time>2021-03-01T08:52:41Z</time>
      </trkpt>
      <trkpt lat="43.65051" lon="-0.03697">
        <ele>123</ele>
        <time>2021-03-01T08:53:01Z</time>
      </trkpt>
      <trkpt lat="43.65052" lon="-0.03702">
        <ele>123</ele>
        <time>2021-03-01T08:53:04Z</time>
      </trkpt>
      <trkpt lat="43.65055" lon="-0.0371">
        <ele>123</ele>
        <time>2021-03-01T08:53:12Z</time>
      </trkpt>
      <trkpt lat="43.65057" lon="-0.03715">
        <ele>123</ele>
        <time>2021-03-01T08:53:16Z</time>
      </trkpt>
      <trkpt lat="43.65059" lon="-0.03721">
        <ele>123</ele>
        <time>2021-03-01T08:53:20Z</time>
      </trkpt>
      <trkpt lat="43.65066" lon="-0.03736">
        <ele>123</ele>
        <time>2021-03-01T08:53:29Z</time>
      </trkpt>
      <trkpt lat="43.65071" lon="-0.03752">
        <ele>123</ele>
        <time>2021-03-01T08:53:39Z</time>
      </trkpt>
      <trkpt lat="43.65074" lon="-0.03756">
        <ele>123</ele>
        <time>2021-03-01T08:53:43Z</time>
      </trkpt>
      <trkpt lat="43.65094" lon="-0.0381">
        <ele>123</ele>
        <time>2021-03-01T08:54:15Z</time>
      </trkpt>
      <trkpt lat="43.65097" lon="-0.03814">
        <ele>123</ele>
        <time>2021-03-01T08:54:19Z</time>
      </trkpt>
      <trkpt lat="43.65102" lon="-0.03829">
        <ele>123</ele>
        <time>2021-03-01T08:54:28Z</time>
      </trkpt>
      <trkpt lat="43.65107" lon="-0.03838">
        <ele>123</ele>
        <time>2021-03-01T08:54:34Z</time>
      </trkpt>
      <trkpt lat="43.65108" lon="-0.03844">
        <ele>123</ele>
        <time>2021-03-01T08:54:38Z</time>
      </trkpt>
      <trkpt lat="43.65125" lon="-0.03897">
        <ele>122</ele>
        <time>2021-03-01T08:55:11Z</time>
      </trkpt>
      <trkpt lat="43.65132" lon="-0.03924">
        <ele>123</ele>
        <time>2021-03-01T08:55:26Z</time>
      </trkpt>
      <trkpt lat="43.65136" lon="-0.03948">
        <ele>123</ele>
        <time>2021-03-01T08:55:39Z</time>
      </trkpt>
      <trkpt lat="43.65143" lon="-0.03976">
        <ele>123</ele>
        <time>2021-03-01T08:55:56Z</time>
      </trkpt>
      <trkpt lat="43.65143" lon="-0.03992">
        <ele>123</ele>
        <time>2021-03-01T08:56:05Z</time>
      </trkpt>
      <trkpt lat="43.65155" lon="-0.04046">
        <ele>122</ele>
        <time>2021-03-01T08:56:36Z</time>
      </trkpt>
      <trkpt lat="43.65161" lon="-0.04088">
        <ele>122</ele>
        <time>2021-03-01T08:57:00Z</time>
      </trkpt>
      <trkpt lat="43.65164" lon="-0.04093">
        <ele>122</ele>
        <time>2021-03-01T08:57:04Z</time>
      </trkpt>
      <trkpt lat="43.65169" lon="-0.04123">
        <ele>122</ele>
        <time>2021-03-01T08:57:21Z</time>
      </trkpt>
      <trkpt lat="43.6517" lon="-0.0413">
        <ele>122</ele>
        <time>2021-03-01T08:57:24Z</time>
      </trkpt>
      <trkpt lat="43.65173" lon="-0.04142">
        <ele>123</ele>
        <time>2021-03-01T08:57:31Z</time>
      </trkpt>
      <trkpt lat="43.65174" lon="-0.04149">
        <ele>123</ele>
        <time>2021-03-01T08:57:35Z</time>
      </trkpt>
      <trkpt lat="43.65182" lon="-0.04179">
        <ele>123</ele>
        <time>2021-03-01T08:57:53Z</time>
      </trkpt>
      <trkpt lat="43.65184" lon="-0.04184">
        <ele>123</ele>
        <time>2021-03-01T08:57:57Z</time>
      </trkpt>
      <trkpt lat="43.65188" lon="-0.04188">
        <ele>122</ele>
        <time>2021-03-01T08:58:00Z</time>
      </trkpt>
      <trkpt lat="43.65192" lon="-0.04191">
        <ele>122</ele>
        <time>2021-03-01T08:58:04Z</time>
      </trkpt>
      <trkpt lat="43.65197" lon="-0.04192">
        <ele>123</ele>
        <time>2021-03-01T08:58:08Z</time>
      </trkpt>
      <trkpt lat="43.65202" lon="-0.04191">
        <ele>123</ele>
        <time>2021-03-01T08:58:10Z</time>
      </trkpt>
      <trkpt lat="43.6522" lon="-0.04182">
        <ele>123</ele>
        <time>2021-03-01T08:58:26Z</time>
      </trkpt>
      <trkpt lat="43.65225" lon="-0.04181">
        <ele>123</ele>
        <time>2021-03-01T08:58:29Z</time>
      </trkpt>
      <trkpt lat="43.65235" lon="-0.04185">
        <ele>123</ele>
        <time>2021-03-01T08:58:37Z</time>
      </trkpt>
      <trkpt lat="43.65238" lon="-0.04188">
        <ele>123</ele>
        <time>2021-03-01T08:58:41Z</time>
      </trkpt>
      <trkpt lat="43.65244" lon="-0.04206">
        <ele>123</ele>
        <time>2021-03-01T08:58:53Z</time>
      </trkpt>
      <trkpt lat="43.65244" lon="-0.04212">
        <ele>122</ele>
        <time>2021-03-01T08:58:57Z</time>
      </trkpt>
      <trkpt lat="43.65247" lon="-0.04218">
        <ele>123</ele>
        <time>2021-03-01T08:59:01Z</time>
      </trkpt>
      <trkpt lat="43.65262" lon="-0.04273">
        <ele>122</ele>
        <time>2021-03-01T08:59:33Z</time>
      </trkpt>
      <trkpt lat="43.65264" lon="-0.04278">
        <ele>122</ele>
        <time>2021-03-01T08:59:36Z</time>
      </trkpt>
      <trkpt lat="43.65275" lon="-0.04329">
        <ele>122</ele>
        <time>2021-03-01T09:00:06Z</time>
      </trkpt>
      <trkpt lat="43.65274" lon="-0.04335">
        <ele>122</ele>
        <time>2021-03-01T09:00:10Z</time>
      </trkpt>
      <trkpt lat="43.65285" lon="-0.04381">
        <ele>122</ele>
        <time>2021-03-01T09:00:38Z</time>
      </trkpt>
      <trkpt lat="43.65287" lon="-0.04395">
        <ele>122</ele>
        <time>2021-03-01T09:00:47Z</time>
      </trkpt>
      <trkpt lat="43.65289" lon="-0.04401">
        <ele>122</ele>
        <time>2021-03-01T09:00:51Z</time>
      </trkpt>
      <trkpt lat="43.65291" lon="-0.04409">
        <ele>122</ele>
        <time>2021-03-01T09:01:22Z</time>
      </trkpt>
      <trkpt lat="43.6529" lon="-0.04417">
        <ele>122</ele>
        <time>2021-03-01T09:01:27Z</time>
      </trkpt>
      <trkpt lat="43.65278" lon="-0.04462">
        <ele>121</ele>
        <time>2021-03-01T09:02:00Z</time>
      </trkpt>
      <trkpt lat="43.65274" lon="-0.04479">
        <ele>120</ele>
        <time>2021-03-01T09:02:10Z</time>
      </trkpt>
      <trkpt lat="43.65272" lon="-0.04489">
        <ele>121</ele>
        <time>2021-03-01T09:02:16Z</time>
      </trkpt>
      <trkpt lat="43.65271" lon="-0.04503">
        <ele>121</ele>
        <time>2021-03-01T09:02:25Z</time>
      </trkpt>
      <trkpt lat="43.65258" lon="-0.04559">
        <ele>121</ele>
        <time>2021-03-01T09:02:58Z</time>
      </trkpt>
      <trkpt lat="43.65255" lon="-0.04568">
        <ele>121</ele>
        <time>2021-03-01T09:03:04Z</time>
      </trkpt>
      <trkpt lat="43.65255" lon="-0.04579">
        <ele>121</ele>
        <time>2021-03-01T09:03:10Z</time>
      </trkpt>
      <trkpt lat="43.65256" lon="-0.04583">
        <ele>121</ele>
        <time>2021-03-01T09:03:13Z</time>
      </trkpt>
      <trkpt lat="43.65259" lon="-0.04587">
        <ele>121</ele>
        <time>2021-03-01T09:03:16Z</time>
      </trkpt>
      <trkpt lat="43.65262" lon="-0.04589">
        <ele>122</ele>
        <time>2021-03-01T09:03:19Z</time>
      </trkpt>
      <trkpt lat="43.65266" lon="-0.04589">
        <ele>122</ele>
        <time>2021-03-01T09:03:22Z</time>
      </trkpt>
      <trkpt lat="43.65277" lon="-0.04585">
        <ele>121</ele>
        <time>2021-03-01T09:03:33Z</time>
      </trkpt>
      <trkpt lat="43.65284" lon="-0.04581">
        <ele>121</ele>
        <time>2021-03-01T09:04:08Z</time>
      </trkpt>
      <trkpt lat="43.65287" lon="-0.04579">
        <ele>121</ele>
        <time>2021-03-01T09:04:10Z</time>
      </trkpt>
      <trkpt lat="43.65307" lon="-0.04571">
        <ele>120</ele>
        <time>2021-03-01T09:04:33Z</time>
      </trkpt>
      <trkpt lat="43.6531" lon="-0.04568">
        <ele>120</ele>
        <time>2021-03-01T09:04:36Z</time>
      </trkpt>
      <trkpt lat="43.65313" lon="-0.04564">
        <ele>120</ele>
        <time>2021-03-01T09:04:40Z</time>
      </trkpt>
      <trkpt lat="43.6532" lon="-0.04562">
        <ele>120</ele>
        <time>2021-03-01T09:04:47Z</time>
      </trkpt>
      <trkpt lat="43.65327" lon="-0.04561">
        <ele>120</ele>
        <time>2021-03-01T09:05:16Z</time>
      </trkpt>
      <trkpt lat="43.65335" lon="-0.04561">
        <ele>120</ele>
        <time>2021-03-01T09:05:22Z</time>
      </trkpt>
      <trkpt lat="43.65339" lon="-0.04561">
        <ele>120</ele>
        <time>2021-03-01T09:05:26Z</time>
      </trkpt>
      <trkpt lat="43.65343" lon="-0.04565">
        <ele>120</ele>
        <time>2021-03-01T09:05:30Z</time>
      </trkpt>
      <trkpt lat="43.65346" lon="-0.04568">
        <ele>120</ele>
        <time>2021-03-01T09:05:33Z</time>
      </trkpt>
      <trkpt lat="43.65349" lon="-0.04576">
        <ele>120</ele>
        <time>2021-03-01T09:05:37Z</time>
      </trkpt>
      <trkpt lat="43.6535" lon="-0.04587">
        <ele>120</ele>
        <time>2021-03-01T09:05:43Z</time>
      </trkpt>
      <trkpt lat="43.65354" lon="-0.04596">
        <ele>120</ele>
        <time>2021-03-01T09:05:49Z</time>
      </trkpt>
      <trkpt lat="43.65362" lon="-0.04626">
        <ele>120</ele>
        <time>2021-03-01T09:06:07Z</time>
      </trkpt>
      <trkpt lat="43.65364" lon="-0.04631">
        <ele>120</ele>
        <time>2021-03-01T09:06:10Z</time>
      </trkpt>
      <trkpt lat="43.65365" lon="-0.04643">
        <ele>121</ele>
        <time>2021-03-01T09:06:16Z</time>
      </trkpt>
      <trkpt lat="43.65376" lon="-0.04679">
        <ele>121</ele>
        <time>2021-03-01T09:06:37Z</time>
      </trkpt>
      <trkpt lat="43.6538" lon="-0.04687">
        <ele>121</ele>
        <time>2021-03-01T09:06:43Z</time>
      </trkpt>
      <trkpt lat="43.65383" lon="-0.04689">
        <ele>121</ele>
        <time>2021-03-01T09:06:51Z</time>
      </trkpt>
      <trkpt lat="43.65384" lon="-0.0469">
        <ele>121</ele>
        <time>2021-03-01T09:08:33Z</time>
      </trkpt>
      <trkpt lat="43.65387" lon="-0.04687">
        <ele>121</ele>
        <time>2021-03-01T09:09:32Z</time>
      </trkpt>
      <trkpt lat="43.65395" lon="-0.04685">
        <ele>121</ele>
        <time>2021-03-01T09:09:39Z</time>
      </trkpt>
      <trkpt lat="43.65402" lon="-0.0468">
        <ele>121</ele>
        <time>2021-03-01T09:09:45Z</time>
      </trkpt>
      <trkpt lat="43.65407" lon="-0.04674">
        <ele>121</ele>
        <time>2021-03-01T09:09:51Z</time>
      </trkpt>
      <trkpt lat="43.65419" lon="-0.04663">
        <ele>121</ele>
        <time>2021-03-01T09:10:03Z</time>
      </trkpt>
      <trkpt lat="43.65423" lon="-0.04662">
        <ele>121</ele>
        <time>2021-03-01T09:10:06Z</time>
      </trkpt>
      <trkpt lat="43.6543" lon="-0.04658">
        <ele>121</ele>
        <time>2021-03-01T09:10:12Z</time>
      </trkpt>
      <trkpt lat="43.65433" lon="-0.04658">
        <ele>121</ele>
        <time>2021-03-01T09:10:15Z</time>
      </trkpt>
      <trkpt lat="43.65441" lon="-0.04664">
        <ele>120</ele>
        <time>2021-03-01T09:10:22Z</time>
      </trkpt>
      <trkpt lat="43.65464" lon="-0.04707">
        <ele>121</ele>
        <time>2021-03-01T09:10:53Z</time>
      </trkpt>
      <trkpt lat="43.65489" lon="-0.0475">
        <ele>121</ele>
        <time>2021-03-01T09:11:23Z</time>
      </trkpt>
      <trkpt lat="43.65492" lon="-0.04754">
        <ele>121</ele>
        <time>2021-03-01T09:11:26Z</time>
      </trkpt>
      <trkpt lat="43.65504" lon="-0.04776">
        <ele>121</ele>
        <time>2021-03-01T09:11:41Z</time>
      </trkpt>
      <trkpt lat="43.65507" lon="-0.0478">
        <ele>121</ele>
        <time>2021-03-01T09:11:44Z</time>
      </trkpt>
      <trkpt lat="43.65519" lon="-0.04801">
        <ele>121</ele>
        <time>2021-03-01T09:11:59Z</time>
      </trkpt>
      <trkpt lat="43.65523" lon="-0.04806">
        <ele>122</ele>
        <time>2021-03-01T09:12:14Z</time>
      </trkpt>
      <trkpt lat="43.65526" lon="-0.04809">
        <ele>121</ele>
        <time>2021-03-01T09:12:17Z</time>
      </trkpt>
      <trkpt lat="43.65527" lon="-0.04814">
        <ele>121</ele>
        <time>2021-03-01T09:12:20Z</time>
      </trkpt>
      <trkpt lat="43.65529" lon="-0.04818">
        <ele>121</ele>
        <time>2021-03-01T09:12:23Z</time>
      </trkpt>
      <trkpt lat="43.65531" lon="-0.04823">
        <ele>121</ele>
        <time>2021-03-01T09:12:26Z</time>
      </trkpt>
      <trkpt lat="43.65556" lon="-0.04867">
        <ele>120</ele>
        <time>2021-03-01T09:12:57Z</time>
      </trkpt>
      <trkpt lat="43.65562" lon="-0.04874">
        <ele>120</ele>
        <time>2021-03-01T09:13:03Z</time>
      </trkpt>
      <trkpt lat="43.65565" lon="-0.04877">
        <ele>120</ele>
        <time>2021-03-01T09:13:06Z</time>
      </trkpt>
      <trkpt lat="43.65574" lon="-0.04888">
        <ele>120</ele>
        <time>2021-03-01T09:13:16Z</time>
      </trkpt>
      <trkpt lat="43.65577" lon="-0.0489">
        <ele>120</ele>
        <time>2021-03-01T09:13:19Z</time>
      </trkpt>
      <trkpt lat="43.65593" lon="-0.04916">
        <ele>120</ele>
        <time>2021-03-01T09:13:37Z</time>
      </trkpt>
      <trkpt lat="43.65599" lon="-0.0493">
        <ele>120</ele>
        <time>2021-03-01T09:13:46Z</time>
      </trkpt>
      <trkpt lat="43.65602" lon="-0.04934">
        <ele>120</ele>
        <time>2021-03-01T09:13:49Z</time>
      </trkpt>
      <trkpt lat="43.6561" lon="-0.04966">
        <ele>120</ele>
        <time>2021-03-01T09:14:08Z</time>
      </trkpt>
      <trkpt lat="43.65612" lon="-0.04992">
        <ele>120</ele>
        <time>2021-03-01T09:14:23Z</time>
      </trkpt>
      <trkpt lat="43.65612" lon="-0.04998">
        <ele>120</ele>
        <time>2021-03-01T09:14:26Z</time>
      </trkpt>
      <trkpt lat="43.65612" lon="-0.05003">
        <ele>120</ele>
        <time>2021-03-01T09:14:28Z</time>
      </trkpt>
      <trkpt lat="43.65608" lon="-0.05058">
        <ele>120</ele>
        <time>2021-03-01T09:15:00Z</time>
      </trkpt>
      <trkpt lat="43.65606" lon="-0.05069">
        <ele>120</ele>
        <time>2021-03-01T09:15:06Z</time>
      </trkpt>
      <trkpt lat="43.65606" lon="-0.05075">
        <ele>120</ele>
        <time>2021-03-01T09:15:09Z</time>
      </trkpt>
      <trkpt lat="43.65607" lon="-0.0508">
        <ele>120</ele>
        <time>2021-03-01T09:15:13Z</time>
      </trkpt>
      <trkpt lat="43.65602" lon="-0.05139">
        <ele>121</ele>
        <time>2021-03-01T09:15:45Z</time>
      </trkpt>
      <trkpt lat="43.65599" lon="-0.05198">
        <ele>120</ele>
        <time>2021-03-01T09:16:18Z</time>
      </trkpt>
      <trkpt lat="43.65594" lon="-0.05257">
        <ele>120</ele>
        <time>2021-03-01T09:16:51Z</time>
      </trkpt>
      <trkpt lat="43.65586" lon="-0.05315">
        <ele>120</ele>
        <time>2021-03-01T09:17:24Z</time>
      </trkpt>
      <trkpt lat="43.65586" lon="-0.05321">
        <ele>120</ele>
        <time>2021-03-01T09:17:27Z</time>
      </trkpt>
      <trkpt lat="43.6558" lon="-0.05352">
        <ele>120</ele>
        <time>2021-03-01T09:17:46Z</time>
      </trkpt>
      <trkpt lat="43.65582" lon="-0.05373">
        <ele>120</ele>
        <time>2021-03-01T09:17:58Z</time>
      </trkpt>
      <trkpt lat="43.65584" lon="-0.05385">
        <ele>120</ele>
        <time>2021-03-01T09:18:04Z</time>
      </trkpt>
      <trkpt lat="43.6559" lon="-0.05404">
        <ele>120</ele>
        <time>2021-03-01T09:18:16Z</time>
      </trkpt>
      <trkpt lat="43.65606" lon="-0.05458">
        <ele>119</ele>
        <time>2021-03-01T09:18:48Z</time>
      </trkpt>
      <trkpt lat="43.65607" lon="-0.05463">
        <ele>119</ele>
        <time>2021-03-01T09:18:51Z</time>
      </trkpt>
      <trkpt lat="43.65618" lon="-0.05488">
        <ele>119</ele>
        <time>2021-03-01T09:19:07Z</time>
      </trkpt>
      <trkpt lat="43.65624" lon="-0.05495">
        <ele>119</ele>
        <time>2021-03-01T09:19:14Z</time>
      </trkpt>
      <trkpt lat="43.65648" lon="-0.0554">
        <ele>116</ele>
        <time>2021-03-01T09:19:47Z</time>
      </trkpt>
      <trkpt lat="43.65668" lon="-0.05584">
        <ele>114</ele>
        <time>2021-03-01T09:20:18Z</time>
      </trkpt>
      <trkpt lat="43.65671" lon="-0.05589">
        <ele>114</ele>
        <time>2021-03-01T09:20:21Z</time>
      </trkpt>
      <trkpt lat="43.65677" lon="-0.05594">
        <ele>114</ele>
        <time>2021-03-01T09:20:27Z</time>
      </trkpt>
      <trkpt lat="43.65681" lon="-0.05593">
        <ele>114</ele>
        <time>2021-03-01T09:20:30Z</time>
      </trkpt>
      <trkpt lat="43.65684" lon="-0.0559">
        <ele>114</ele>
        <time>2021-03-01T09:20:33Z</time>
      </trkpt>
      <trkpt lat="43.65689" lon="-0.0559">
        <ele>113</ele>
        <time>2021-03-01T09:20:36Z</time>
      </trkpt>
      <trkpt lat="43.65713" lon="-0.0557">
        <ele>112</ele>
        <time>2021-03-01T09:20:57Z</time>
      </trkpt>
      <trkpt lat="43.65727" lon="-0.05555">
        <ele>112</ele>
        <time>2021-03-01T09:21:09Z</time>
      </trkpt>
      <trkpt lat="43.65752" lon="-0.05507">
        <ele>111</ele>
        <time>2021-03-01T09:21:41Z</time>
      </trkpt>
      <trkpt lat="43.65763" lon="-0.05479">
        <ele>111</ele>
        <time>2021-03-01T09:21:58Z</time>
      </trkpt>
      <trkpt lat="43.65771" lon="-0.05448">
        <ele>111</ele>
        <time>2021-03-01T09:22:18Z</time>
      </trkpt>
      <trkpt lat="43.65789" lon="-0.054">
        <ele>112</ele>
        <time>2021-03-01T09:22:48Z</time>
      </trkpt>
      <trkpt lat="43.65791" lon="-0.05388">
        <ele>112</ele>
        <time>2021-03-01T09:22:56Z</time>
      </trkpt>
      <trkpt lat="43.65807" lon="-0.05351">
        <ele>112</ele>
        <time>2021-03-01T09:23:20Z</time>
      </trkpt>
      <trkpt lat="43.6581" lon="-0.05348">
        <ele>112</ele>
        <time>2021-03-01T09:23:23Z</time>
      </trkpt>
      <trkpt lat="43.65825" lon="-0.05309">
        <ele>112</ele>
        <time>2021-03-01T09:23:48Z</time>
      </trkpt>
      <trkpt lat="43.65828" lon="-0.0529">
        <ele>111</ele>
        <time>2021-03-01T09:23:59Z</time>
      </trkpt>
      <trkpt lat="43.65828" lon="-0.0528">
        <ele>112</ele>
        <time>2021-03-01T09:24:05Z</time>
      </trkpt>
      <trkpt lat="43.65827" lon="-0.05274">
        <ele>112</ele>
        <time>2021-03-01T09:24:08Z</time>
      </trkpt>
      <trkpt lat="43.65825" lon="-0.05259">
        <ele>111</ele>
        <time>2021-03-01T09:24:17Z</time>
      </trkpt>
      <trkpt lat="43.65822" lon="-0.05238">
        <ele>112</ele>
        <time>2021-03-01T09:24:29Z</time>
      </trkpt>
      <trkpt lat="43.65825" lon="-0.05221">
        <ele>112</ele>
        <time>2021-03-01T09:24:39Z</time>
      </trkpt>
      <trkpt lat="43.65827" lon="-0.05218">
        <ele>111</ele>
        <time>2021-03-01T09:24:42Z</time>
      </trkpt>
      <trkpt lat="43.65833" lon="-0.05214">
        <ele>111</ele>
        <time>2021-03-01T09:24:49Z</time>
      </trkpt>
      <trkpt lat="43.65845" lon="-0.05211">
        <ele>111</ele>
        <time>2021-03-01T09:24:59Z</time>
      </trkpt>
      <trkpt lat="43.65849" lon="-0.05208">
        <ele>111</ele>
        <time>2021-03-01T09:25:02Z</time>
      </trkpt>
      <trkpt lat="43.65854" lon="-0.05202">
        <ele>112</ele>
        <time>2021-03-01T09:25:08Z</time>
      </trkpt>
      <trkpt lat="43.65856" lon="-0.05191">
        <ele>112</ele>
        <time>2021-03-01T09:25:14Z</time>
      </trkpt>
      <trkpt lat="43.65857" lon="-0.05185">
        <ele>112</ele>
        <time>2021-03-01T09:25:17Z</time>
      </trkpt>
      <trkpt lat="43.65855" lon="-0.0516">
        <ele>112</ele>
        <time>2021-03-01T09:25:31Z</time>
      </trkpt>
      <trkpt lat="43.65856" lon="-0.05154">
        <ele>112</ele>
        <time>2021-03-01T09:25:35Z</time>
      </trkpt>
      <trkpt lat="43.65854" lon="-0.05147">
        <ele>111</ele>
        <time>2021-03-01T09:25:43Z</time>
      </trkpt>
      <trkpt lat="43.65857" lon="-0.0514">
        <ele>112</ele>
        <time>2021-03-01T09:26:23Z</time>
      </trkpt>
      <trkpt lat="43.65862" lon="-0.05137">
        <ele>112</ele>
        <time>2021-03-01T09:26:31Z</time>
      </trkpt>
      <trkpt lat="43.65876" lon="-0.05127">
        <ele>111</ele>
        <time>2021-03-01T09:26:43Z</time>
      </trkpt>
      <trkpt lat="43.65881" lon="-0.05117">
        <ele>111</ele>
        <time>2021-03-01T09:26:50Z</time>
      </trkpt>
      <trkpt lat="43.65882" lon="-0.05112">
        <ele>112</ele>
        <time>2021-03-01T09:27:16Z</time>
      </trkpt>
      <trkpt lat="43.65893" lon="-0.05098">
        <ele>111</ele>
        <time>2021-03-01T09:27:31Z</time>
      </trkpt>
      <trkpt lat="43.65901" lon="-0.05092">
        <ele>111</ele>
        <time>2021-03-01T09:27:40Z</time>
      </trkpt>
      <trkpt lat="43.65912" lon="-0.0509">
        <ele>111</ele>
        <time>2021-03-01T09:27:49Z</time>
      </trkpt>
      <trkpt lat="43.65932" lon="-0.05075">
        <ele>111</ele>
        <time>2021-03-01T09:28:07Z</time>
      </trkpt>
      <trkpt lat="43.65935" lon="-0.05074">
        <ele>111</ele>
        <time>2021-03-01T09:28:10Z</time>
      </trkpt>
      <trkpt lat="43.6595" lon="-0.05067">
        <ele>111</ele>
        <time>2021-03-01T09:28:22Z</time>
      </trkpt>
      <trkpt lat="43.65972" lon="-0.05057">
        <ele>111</ele>
        <time>2021-03-01T09:28:40Z</time>
      </trkpt>
      <trkpt lat="43.65983" lon="-0.05051">
        <ele>111</ele>
        <time>2021-03-01T09:28:49Z</time>
      </trkpt>
      <trkpt lat="43.65994" lon="-0.05051">
        <ele>112</ele>
        <time>2021-03-01T09:28:58Z</time>
      </trkpt>
      <trkpt lat="43.66008" lon="-0.05046">
        <ele>112</ele>
        <time>2021-03-01T09:29:10Z</time>
      </trkpt>
      <trkpt lat="43.66027" lon="-0.05044">
        <ele>112</ele>
        <time>2021-03-01T09:29:26Z</time>
      </trkpt>
      <trkpt lat="43.66032" lon="-0.05046">
        <ele>112</ele>
        <time>2021-03-01T09:29:32Z</time>
      </trkpt>
      <trkpt lat="43.66035" lon="-0.05043">
        <ele>112</ele>
        <time>2021-03-01T09:29:48Z</time>
      </trkpt>
      <trkpt lat="43.6604" lon="-0.05044">
        <ele>112</ele>
        <time>2021-03-01T09:30:12Z</time>
      </trkpt>
      <trkpt lat="43.66044" lon="-0.05042">
        <ele>112</ele>
        <time>2021-03-01T09:30:18Z</time>
      </trkpt>
      <trkpt lat="43.66048" lon="-0.05043">
        <ele>112</ele>
        <time>2021-03-01T09:30:23Z</time>
      </trkpt>
      <trkpt lat="43.6605" lon="-0.05048">
        <ele>112</ele>
        <time>2021-03-01T09:30:28Z</time>
      </trkpt>
      <trkpt lat="43.66063" lon="-0.05073">
        <ele>112</ele>
        <time>2021-03-01T09:30:50Z</time>
      </trkpt>
      <trkpt lat="43.66064" lon="-0.05079">
        <ele>112</ele>
        <time>2021-03-01T09:30:54Z</time>
      </trkpt>
      <trkpt lat="43.6607" lon="-0.05093">
        <ele>112</ele>
        <time>2021-03-01T09:31:06Z</time>
      </trkpt>
      <trkpt lat="43.66071" lon="-0.05099">
        <ele>112</ele>
        <time>2021-03-01T09:31:09Z</time>
      </trkpt>
      <trkpt lat="43.66073" lon="-0.05103">
        <ele>111</ele>
        <time>2021-03-01T09:31:12Z</time>
      </trkpt>
      <trkpt lat="43.66074" lon="-0.05108">
        <ele>112</ele>
        <time>2021-03-01T09:31:16Z</time>
      </trkpt>
      <trkpt lat="43.66076" lon="-0.05112">
        <ele>112</ele>
        <time>2021-03-01T09:31:20Z</time>
      </trkpt>
      <trkpt lat="43.66077" lon="-0.0512">
        <ele>112</ele>
        <time>2021-03-01T09:31:30Z</time>
      </trkpt>
      <trkpt lat="43.66082" lon="-0.05144">
        <ele>111</ele>
        <time>2021-03-01T09:31:46Z</time>
      </trkpt>
      <trkpt lat="43.66082" lon="-0.05149">
        <ele>111</ele>
        <time>2021-03-01T09:31:49Z</time>
      </trkpt>
      <trkpt lat="43.66086" lon="-0.05153">
        <ele>111</ele>
        <time>2021-03-01T09:31:52Z</time>
      </trkpt>
      <trkpt lat="43.66089" lon="-0.05157">
        <ele>112</ele>
        <time>2021-03-01T09:31:57Z</time>
      </trkpt>
      <trkpt lat="43.66093" lon="-0.05159">
        <ele>112</ele>
        <time>2021-03-01T09:32:01Z</time>
      </trkpt>
      <trkpt lat="43.66098" lon="-0.05159">
        <ele>112</ele>
        <time>2021-03-01T09:32:06Z</time>
      </trkpt>
      <trkpt lat="43.66102" lon="-0.05162">
        <ele>112</ele>
        <time>2021-03-01T09:32:10Z</time>
      </trkpt>
      <trkpt lat="43.66108" lon="-0.05176">
        <ele>111</ele>
        <time>2021-03-01T09:32:22Z</time>
      </trkpt>
      <trkpt lat="43.66111" lon="-0.05179">
        <ele>111</ele>
        <time>2021-03-01T09:32:25Z</time>
      </trkpt>
      <trkpt lat="43.66121" lon="-0.05195">
        <ele>111</ele>
        <time>2021-03-01T09:32:38Z</time>
      </trkpt>
      <trkpt lat="43.66124" lon="-0.05198">
        <ele>111</ele>
        <time>2021-03-01T09:32:42Z</time>
      </trkpt>
      <trkpt lat="43.6613" lon="-0.05208">
        <ele>111</ele>
        <time>2021-03-01T09:32:52Z</time>
      </trkpt>
      <trkpt lat="43.66153" lon="-0.05224">
        <ele>111</ele>
        <time>2021-03-01T09:33:19Z</time>
      </trkpt>
      <trkpt lat="43.66154" lon="-0.0523">
        <ele>111</ele>
        <time>2021-03-01T09:33:25Z</time>
      </trkpt>
      <trkpt lat="43.66156" lon="-0.0527">
        <ele>111</ele>
        <time>2021-03-01T09:33:53Z</time>
      </trkpt>
      <trkpt lat="43.66163" lon="-0.05295">
        <ele>111</ele>
        <time>2021-03-01T09:34:11Z</time>
      </trkpt>
      <trkpt lat="43.66162" lon="-0.05306">
        <ele>111</ele>
        <time>2021-03-01T09:34:19Z</time>
      </trkpt>
      <trkpt lat="43.66153" lon="-0.05329">
        <ele>111</ele>
        <time>2021-03-01T09:34:39Z</time>
      </trkpt>
      <trkpt lat="43.66154" lon="-0.05335">
        <ele>111</ele>
        <time>2021-03-01T09:34:43Z</time>
      </trkpt>
      <trkpt lat="43.66155" lon="-0.05339">
        <ele>111</ele>
        <time>2021-03-01T09:34:51Z</time>
      </trkpt>
      <trkpt lat="43.66161" lon="-0.05344">
        <ele>111</ele>
        <time>2021-03-01T09:35:34Z</time>
      </trkpt>
      <trkpt lat="43.66165" lon="-0.05346">
        <ele>110</ele>
        <time>2021-03-01T09:35:38Z</time>
      </trkpt>
      <trkpt lat="43.66193" lon="-0.05361">
        <ele>110</ele>
        <time>2021-03-01T09:36:15Z</time>
      </trkpt>
      <trkpt lat="43.66223" lon="-0.05378">
        <ele>110</ele>
        <time>2021-03-01T09:36:51Z</time>
      </trkpt>
      <trkpt lat="43.66236" lon="-0.05384">
        <ele>110</ele>
        <time>2021-03-01T09:37:07Z</time>
      </trkpt>
      <trkpt lat="43.66242" lon="-0.05388">
        <ele>110</ele>
        <time>2021-03-01T09:37:16Z</time>
      </trkpt>
      <trkpt lat="43.66247" lon="-0.05389">
        <ele>110</ele>
        <time>2021-03-01T09:37:21Z</time>
      </trkpt>
      <trkpt lat="43.66253" lon="-0.05394">
        <ele>110</ele>
        <time>2021-03-01T09:37:30Z</time>
      </trkpt>
      <trkpt lat="43.6628" lon="-0.05407">
        <ele>110</ele>
        <time>2021-03-01T09:38:03Z</time>
      </trkpt>
      <trkpt lat="43.66286" lon="-0.0541">
        <ele>110</ele>
        <time>2021-03-01T09:38:10Z</time>
      </trkpt>
      <trkpt lat="43.66292" lon="-0.05414">
        <ele>110</ele>
        <time>2021-03-01T09:38:18Z</time>
      </trkpt>
      <trkpt lat="43.66298" lon="-0.05416">
        <ele>110</ele>
        <time>2021-03-01T09:38:27Z</time>
      </trkpt>
      <trkpt lat="43.66302" lon="-0.05416">
        <ele>110</ele>
        <time>2021-03-01T09:38:39Z</time>
      </trkpt>
      <trkpt lat="43.66307" lon="-0.05417">
        <ele>110</ele>
        <time>2021-03-01T09:38:51Z</time>
      </trkpt>
      <trkpt lat="43.66315" lon="-0.05414">
        <ele>109</ele>
        <time>2021-03-01T09:39:08Z</time>
      </trkpt>
      <trkpt lat="43.66319" lon="-0.05413">
        <ele>110</ele>
        <time>2021-03-01T09:39:37Z</time>
      </trkpt>
      <trkpt lat="43.66326" lon="-0.05418">
        <ele>109</ele>
        <time>2021-03-01T09:39:49Z</time>
      </trkpt>
      <trkpt lat="43.6635" lon="-0.05435">
        <ele>110</ele>
        <time>2021-03-01T09:40:13Z</time>
      </trkpt>
      <trkpt lat="43.66358" lon="-0.05439">
        <ele>110</ele>
        <time>2021-03-01T09:40:21Z</time>
      </trkpt>
      <trkpt lat="43.66392" lon="-0.05458">
        <ele>110</ele>
        <time>2021-03-01T09:40:56Z</time>
      </trkpt>
      <trkpt lat="43.66413" lon="-0.05474">
        <ele>110</ele>
        <time>2021-03-01T09:41:17Z</time>
      </trkpt>
      <trkpt lat="43.6642" lon="-0.05481">
        <ele>110</ele>
        <time>2021-03-01T09:41:25Z</time>
      </trkpt>
      <trkpt lat="43.66423" lon="-0.05483">
        <ele>110</ele>
        <time>2021-03-01T09:41:28Z</time>
      </trkpt>
      <trkpt lat="43.66428" lon="-0.05486">
        <ele>110</ele>
        <time>2021-03-01T09:41:32Z</time>
      </trkpt>
      <trkpt lat="43.66441" lon="-0.05494">
        <ele>111</ele>
        <time>2021-03-01T09:41:47Z</time>
      </trkpt>
      <trkpt lat="43.66467" lon="-0.05497">
        <ele>109</ele>
        <time>2021-03-01T09:42:12Z</time>
      </trkpt>
      <trkpt lat="43.66481" lon="-0.05497">
        <ele>109</ele>
        <time>2021-03-01T09:42:25Z</time>
      </trkpt>
      <trkpt lat="43.66491" lon="-0.05502">
        <ele>109</ele>
        <time>2021-03-01T09:42:34Z</time>
      </trkpt>
      <trkpt lat="43.66494" lon="-0.05506">
        <ele>110</ele>
        <time>2021-03-01T09:42:42Z</time>
      </trkpt>
      <trkpt lat="43.6649" lon="-0.05516">
        <ele>110</ele>
        <time>2021-03-01T09:42:53Z</time>
      </trkpt>
      <trkpt lat="43.66492" lon="-0.05521">
        <ele>109</ele>
        <time>2021-03-01T09:42:56Z</time>
      </trkpt>
      <trkpt lat="43.66496" lon="-0.05526">
        <ele>109</ele>
        <time>2021-03-01T09:43:00Z</time>
      </trkpt>
      <trkpt lat="43.66519" lon="-0.05534">
        <ele>109</ele>
        <time>2021-03-01T09:43:20Z</time>
      </trkpt>
      <trkpt lat="43.66523" lon="-0.05533">
        <ele>109</ele>
        <time>2021-03-01T09:43:23Z</time>
      </trkpt>
      <trkpt lat="43.66532" lon="-0.05536">
        <ele>109</ele>
        <time>2021-03-01T09:43:31Z</time>
      </trkpt>
      <trkpt lat="43.66541" lon="-0.05537">
        <ele>109</ele>
        <time>2021-03-01T09:43:39Z</time>
      </trkpt>
      <trkpt lat="43.66565" lon="-0.05546">
        <ele>107</ele>
        <time>2021-03-01T09:44:04Z</time>
      </trkpt>
      <trkpt lat="43.66569" lon="-0.05543">
        <ele>108</ele>
        <time>2021-03-01T09:44:09Z</time>
      </trkpt>
      <trkpt lat="43.66574" lon="-0.05542">
        <ele>108</ele>
        <time>2021-03-01T09:44:21Z</time>
      </trkpt>
      <trkpt lat="43.66578" lon="-0.05548">
        <ele>108</ele>
        <time>2021-03-01T09:44:28Z</time>
      </trkpt>
      <trkpt lat="43.66578" lon="-0.05554">
        <ele>108</ele>
        <time>2021-03-01T09:44:35Z</time>
      </trkpt>
      <trkpt lat="43.66579" lon="-0.05567">
        <ele>108</ele>
        <time>2021-03-01T09:44:49Z</time>
      </trkpt>
      <trkpt lat="43.66583" lon="-0.05578">
        <ele>108</ele>
        <time>2021-03-01T09:44:57Z</time>
      </trkpt>
      <trkpt lat="43.66586" lon="-0.05582">
        <ele>108</ele>
        <time>2021-03-01T09:45:01Z</time>
      </trkpt>
      <trkpt lat="43.6659" lon="-0.05594">
        <ele>108</ele>
        <time>2021-03-01T09:45:10Z</time>
      </trkpt>
      <trkpt lat="43.66597" lon="-0.05604">
        <ele>108</ele>
        <time>2021-03-01T09:45:17Z</time>
      </trkpt>
      <trkpt lat="43.66613" lon="-0.05635">
        <ele>108</ele>
        <time>2021-03-01T09:45:43Z</time>
      </trkpt>
      <trkpt lat="43.66617" lon="-0.05637">
        <ele>108</ele>
        <time>2021-03-01T09:45:47Z</time>
      </trkpt>
      <trkpt lat="43.6662" lon="-0.05641">
        <ele>108</ele>
        <time>2021-03-01T09:45:51Z</time>
      </trkpt>
      <trkpt lat="43.66624" lon="-0.05643">
        <ele>108</ele>
        <time>2021-03-01T09:45:55Z</time>
      </trkpt>
      <trkpt lat="43.66631" lon="-0.05653">
        <ele>108</ele>
        <time>2021-03-01T09:46:02Z</time>
      </trkpt>
      <trkpt lat="43.66648" lon="-0.05688">
        <ele>108</ele>
        <time>2021-03-01T09:46:30Z</time>
      </trkpt>
      <trkpt lat="43.66652" lon="-0.05695">
        <ele>107</ele>
        <time>2021-03-01T09:46:37Z</time>
      </trkpt>
      <trkpt lat="43.66657" lon="-0.05695">
        <ele>107</ele>
        <time>2021-03-01T09:46:44Z</time>
      </trkpt>
      <trkpt lat="43.66659" lon="-0.05704">
        <ele>107</ele>
        <time>2021-03-01T09:46:56Z</time>
      </trkpt>
      <trkpt lat="43.66666" lon="-0.05701">
        <ele>107</ele>
        <time>2021-03-01T09:47:13Z</time>
      </trkpt>
      <trkpt lat="43.66667" lon="-0.05708">
        <ele>107</ele>
        <time>2021-03-01T09:47:21Z</time>
      </trkpt>
      <trkpt lat="43.66669" lon="-0.05715">
        <ele>107</ele>
        <time>2021-03-01T09:47:26Z</time>
      </trkpt>
      <trkpt lat="43.6667" lon="-0.0573">
        <ele>108</ele>
        <time>2021-03-01T09:47:42Z</time>
      </trkpt>
      <trkpt lat="43.66666" lon="-0.05739">
        <ele>108</ele>
        <time>2021-03-01T09:47:54Z</time>
      </trkpt>
      <trkpt lat="43.66663" lon="-0.05744">
        <ele>108</ele>
        <time>2021-03-01T09:47:58Z</time>
      </trkpt>
      <trkpt lat="43.66653" lon="-0.05782">
        <ele>108</ele>
        <time>2021-03-01T09:48:24Z</time>
      </trkpt>
      <trkpt lat="43.66653" lon="-0.0579">
        <ele>108</ele>
        <time>2021-03-01T09:48:29Z</time>
      </trkpt>
      <trkpt lat="43.66652" lon="-0.05804">
        <ele>108</ele>
        <time>2021-03-01T09:48:37Z</time>
      </trkpt>
      <trkpt lat="43.66648" lon="-0.05816">
        <ele>108</ele>
        <time>2021-03-01T09:48:43Z</time>
      </trkpt>
      <trkpt lat="43.66648" lon="-0.05825">
        <ele>108</ele>
        <time>2021-03-01T09:48:50Z</time>
      </trkpt>
      <trkpt lat="43.66647" lon="-0.05838">
        <ele>108</ele>
        <time>2021-03-01T09:48:57Z</time>
      </trkpt>
      <trkpt lat="43.66649" lon="-0.05844">
        <ele>108</ele>
        <time>2021-03-01T09:49:00Z</time>
      </trkpt>
      <trkpt lat="43.66652" lon="-0.05852">
        <ele>108</ele>
        <time>2021-03-01T09:49:04Z</time>
      </trkpt>
      <trkpt lat="43.66654" lon="-0.05867">
        <ele>108</ele>
        <time>2021-03-01T09:49:15Z</time>
      </trkpt>
      <trkpt lat="43.66653" lon="-0.05876">
        <ele>107</ele>
        <time>2021-03-01T09:49:29Z</time>
      </trkpt>
      <trkpt lat="43.66652" lon="-0.05902">
        <ele>108</ele>
        <time>2021-03-01T09:49:54Z</time>
      </trkpt>
      <trkpt lat="43.6665" lon="-0.05912">
        <ele>109</ele>
        <time>2021-03-01T09:50:00Z</time>
      </trkpt>
      <trkpt lat="43.66651" lon="-0.05942">
        <ele>109</ele>
        <time>2021-03-01T09:50:18Z</time>
      </trkpt>
      <trkpt lat="43.66652" lon="-0.05947">
        <ele>108</ele>
        <time>2021-03-01T09:50:22Z</time>
      </trkpt>
      <trkpt lat="43.66652" lon="-0.05959">
        <ele>108</ele>
        <time>2021-03-01T09:50:29Z</time>
      </trkpt>
      <trkpt lat="43.6665" lon="-0.06">
        <ele>108</ele>
        <time>2021-03-01T09:50:57Z</time>
      </trkpt>
      <trkpt lat="43.66648" lon="-0.06005">
        <ele>108</ele>
        <time>2021-03-01T09:51:01Z</time>
      </trkpt>
      <trkpt lat="43.66649" lon="-0.06023">
        <ele>108</ele>
        <time>2021-03-01T09:51:13Z</time>
      </trkpt>
      <trkpt lat="43.66649" lon="-0.06036">
        <ele>108</ele>
        <time>2021-03-01T09:51:21Z</time>
      </trkpt>
      <trkpt lat="43.6665" lon="-0.06041">
        <ele>108</ele>
        <time>2021-03-01T09:51:24Z</time>
      </trkpt>
      <trkpt lat="43.66653" lon="-0.06045">
        <ele>108</ele>
        <time>2021-03-01T09:51:31Z</time>
      </trkpt>
      <trkpt lat="43.66653" lon="-0.06054">
        <ele>108</ele>
        <time>2021-03-01T09:51:55Z</time>
      </trkpt>
      <trkpt lat="43.66651" lon="-0.06058">
        <ele>108</ele>
        <time>2021-03-01T09:51:59Z</time>
      </trkpt>
      <trkpt lat="43.66648" lon="-0.06064">
        <ele>107</ele>
        <time>2021-03-01T09:52:07Z</time>
      </trkpt>
      <trkpt lat="43.66646" lon="-0.0607">
        <ele>107</ele>
        <time>2021-03-01T09:52:11Z</time>
      </trkpt>
      <trkpt lat="43.66645" lon="-0.06082">
        <ele>107</ele>
        <time>2021-03-01T09:52:18Z</time>
      </trkpt>
      <trkpt lat="43.66643" lon="-0.06088">
        <ele>107</ele>
        <time>2021-03-01T09:52:22Z</time>
      </trkpt>
      <trkpt lat="43.66643" lon="-0.06093">
        <ele>107</ele>
        <time>2021-03-01T09:52:25Z</time>
      </trkpt>
      <trkpt lat="43.66636" lon="-0.06131">
        <ele>107</ele>
        <time>2021-03-01T09:52:50Z</time>
      </trkpt>
      <trkpt lat="43.6663" lon="-0.06162">
        <ele>106</ele>
        <time>2021-03-01T09:53:09Z</time>
      </trkpt>
      <trkpt lat="43.66626" lon="-0.06165">
        <ele>106</ele>
        <time>2021-03-01T09:53:14Z</time>
      </trkpt>
      <trkpt lat="43.66626" lon="-0.06172">
        <ele>106</ele>
        <time>2021-03-01T09:53:18Z</time>
      </trkpt>
      <trkpt lat="43.66623" lon="-0.0619">
        <ele>105</ele>
        <time>2021-03-01T09:53:31Z</time>
      </trkpt>
      <trkpt lat="43.66616" lon="-0.06202">
        <ele>106</ele>
        <time>2021-03-01T09:53:40Z</time>
      </trkpt>
      <trkpt lat="43.66609" lon="-0.06212">
        <ele>106</ele>
        <time>2021-03-01T09:53:47Z</time>
      </trkpt>
      <trkpt lat="43.66604" lon="-0.06214">
        <ele>106</ele>
        <time>2021-03-01T09:53:51Z</time>
      </trkpt>
      <trkpt lat="43.66602" lon="-0.06222">
        <ele>105</ele>
        <time>2021-03-01T09:53:57Z</time>
      </trkpt>
      <trkpt lat="43.66598" lon="-0.06227">
        <ele>105</ele>
        <time>2021-03-01T09:54:02Z</time>
      </trkpt>
      <trkpt lat="43.66598" lon="-0.06233">
        <ele>105</ele>
        <time>2021-03-01T09:54:06Z</time>
      </trkpt>
      <trkpt lat="43.66595" lon="-0.06247">
        <ele>106</ele>
        <time>2021-03-01T09:54:17Z</time>
      </trkpt>
      <trkpt lat="43.66595" lon="-0.06254">
        <ele>106</ele>
        <time>2021-03-01T09:54:21Z</time>
      </trkpt>
      <trkpt lat="43.66597" lon="-0.06261">
        <ele>106</ele>
        <time>2021-03-01T09:54:25Z</time>
      </trkpt>
      <trkpt lat="43.66599" lon="-0.06267">
        <ele>106</ele>
        <time>2021-03-01T09:54:28Z</time>
      </trkpt>
      <trkpt lat="43.66601" lon="-0.06276">
        <ele>106</ele>
        <time>2021-03-01T09:54:35Z</time>
      </trkpt>
      <trkpt lat="43.66611" lon="-0.06291">
        <ele>107</ele>
        <time>2021-03-01T09:54:47Z</time>
      </trkpt>
      <trkpt lat="43.66616" lon="-0.06294">
        <ele>108</ele>
        <time>2021-03-01T09:54:53Z</time>
      </trkpt>
      <trkpt lat="43.66626" lon="-0.06302">
        <ele>108</ele>
        <time>2021-03-01T09:55:05Z</time>
      </trkpt>
      <trkpt lat="43.66631" lon="-0.06304">
        <ele>108</ele>
        <time>2021-03-01T09:55:13Z</time>
      </trkpt>
      <trkpt lat="43.66635" lon="-0.06307">
        <ele>108</ele>
        <time>2021-03-01T09:55:18Z</time>
      </trkpt>
      <trkpt lat="43.66638" lon="-0.06311">
        <ele>108</ele>
        <time>2021-03-01T09:55:23Z</time>
      </trkpt>
      <trkpt lat="43.66642" lon="-0.06313">
        <ele>108</ele>
        <time>2021-03-01T09:55:29Z</time>
      </trkpt>
      <trkpt lat="43.66645" lon="-0.06318">
        <ele>107</ele>
        <time>2021-03-01T09:55:34Z</time>
      </trkpt>
      <trkpt lat="43.66649" lon="-0.0632">
        <ele>107</ele>
        <time>2021-03-01T09:55:43Z</time>
      </trkpt>
      <trkpt lat="43.66652" lon="-0.06327">
        <ele>108</ele>
        <time>2021-03-01T09:55:47Z</time>
      </trkpt>
      <trkpt lat="43.66653" lon="-0.06336">
        <ele>107</ele>
        <time>2021-03-01T09:55:59Z</time>
      </trkpt>
      <trkpt lat="43.66651" lon="-0.06343">
        <ele>107</ele>
        <time>2021-03-01T09:56:04Z</time>
      </trkpt>
      <trkpt lat="43.6664" lon="-0.06362">
        <ele>107</ele>
        <time>2021-03-01T09:56:20Z</time>
      </trkpt>
      <trkpt lat="43.66639" lon="-0.06368">
        <ele>107</ele>
        <time>2021-03-01T09:56:24Z</time>
      </trkpt>
      <trkpt lat="43.66624" lon="-0.06386">
        <ele>107</ele>
        <time>2021-03-01T09:56:47Z</time>
      </trkpt>
      <trkpt lat="43.66622" lon="-0.06392">
        <ele>107</ele>
        <time>2021-03-01T09:56:55Z</time>
      </trkpt>
      <trkpt lat="43.66608" lon="-0.06406">
        <ele>107</ele>
        <time>2021-03-01T09:57:09Z</time>
      </trkpt>
      <trkpt lat="43.66604" lon="-0.06412">
        <ele>107</ele>
        <time>2021-03-01T09:57:13Z</time>
      </trkpt>
      <trkpt lat="43.666" lon="-0.06424">
        <ele>107</ele>
        <time>2021-03-01T09:57:20Z</time>
      </trkpt>
      <trkpt lat="43.66598" lon="-0.06437">
        <ele>107</ele>
        <time>2021-03-01T09:57:26Z</time>
      </trkpt>
      <trkpt lat="43.66592" lon="-0.06455">
        <ele>106</ele>
        <time>2021-03-01T09:57:39Z</time>
      </trkpt>
      <trkpt lat="43.6659" lon="-0.06477">
        <ele>106</ele>
        <time>2021-03-01T09:57:50Z</time>
      </trkpt>
      <trkpt lat="43.66569" lon="-0.06518">
        <ele>106</ele>
        <time>2021-03-01T09:58:21Z</time>
      </trkpt>
      <trkpt lat="43.66554" lon="-0.0655">
        <ele>106</ele>
        <time>2021-03-01T09:58:44Z</time>
      </trkpt>
      <trkpt lat="43.6655" lon="-0.06553">
        <ele>106</ele>
        <time>2021-03-01T09:58:48Z</time>
      </trkpt>
      <trkpt lat="43.66548" lon="-0.06558">
        <ele>106</ele>
        <time>2021-03-01T09:58:52Z</time>
      </trkpt>
      <trkpt lat="43.66546" lon="-0.06564">
        <ele>106</ele>
        <time>2021-03-01T09:58:56Z</time>
      </trkpt>
      <trkpt lat="43.66542" lon="-0.06568">
        <ele>106</ele>
        <time>2021-03-01T09:59:00Z</time>
      </trkpt>
      <trkpt lat="43.66537" lon="-0.06582">
        <ele>106</ele>
        <time>2021-03-01T09:59:09Z</time>
      </trkpt>
      <trkpt lat="43.66531" lon="-0.06592">
        <ele>106</ele>
        <time>2021-03-01T09:59:17Z</time>
      </trkpt>
      <trkpt lat="43.66507" lon="-0.06638">
        <ele>106</ele>
        <time>2021-03-01T09:59:49Z</time>
      </trkpt>
      <trkpt lat="43.66504" lon="-0.06643">
        <ele>105</ele>
        <time>2021-03-01T09:59:52Z</time>
      </trkpt>
      <trkpt lat="43.66503" lon="-0.06648">
        <ele>105</ele>
        <time>2021-03-01T09:59:57Z</time>
      </trkpt>
      <trkpt lat="43.665" lon="-0.06653">
        <ele>105</ele>
        <time>2021-03-01T10:00:00Z</time>
      </trkpt>
      <trkpt lat="43.66499" lon="-0.0666">
        <ele>105</ele>
        <time>2021-03-01T10:00:03Z</time>
      </trkpt>
      <trkpt lat="43.66497" lon="-0.06665">
        <ele>105</ele>
        <time>2021-03-01T10:00:07Z</time>
      </trkpt>
      <trkpt lat="43.66492" lon="-0.0668">
        <ele>105</ele>
        <time>2021-03-01T10:00:19Z</time>
      </trkpt>
      <trkpt lat="43.66489" lon="-0.06684">
        <ele>105</ele>
        <time>2021-03-01T10:00:22Z</time>
      </trkpt>
      <trkpt lat="43.66487" lon="-0.0669">
        <ele>105</ele>
        <time>2021-03-01T10:00:26Z</time>
      </trkpt>
      <trkpt lat="43.66485" lon="-0.0671">
        <ele>105</ele>
        <time>2021-03-01T10:00:37Z</time>
      </trkpt>
      <trkpt lat="43.66483" lon="-0.06714">
        <ele>105</ele>
        <time>2021-03-01T10:00:40Z</time>
      </trkpt>
      <trkpt lat="43.66476" lon="-0.06723">
        <ele>106</ele>
        <time>2021-03-01T10:00:50Z</time>
      </trkpt>
      <trkpt lat="43.66473" lon="-0.06726">
        <ele>106</ele>
        <time>2021-03-01T10:00:52Z</time>
      </trkpt>
      <trkpt lat="43.66464" lon="-0.06737">
        <ele>106</ele>
        <time>2021-03-01T10:01:02Z</time>
      </trkpt>
      <trkpt lat="43.66443" lon="-0.06755">
        <ele>107</ele>
        <time>2021-03-01T10:01:22Z</time>
      </trkpt>
      <trkpt lat="43.66437" lon="-0.06769">
        <ele>108</ele>
        <time>2021-03-01T10:01:32Z</time>
      </trkpt>
      <trkpt lat="43.66417" lon="-0.0679">
        <ele>108</ele>
        <time>2021-03-01T10:01:53Z</time>
      </trkpt>
      <trkpt lat="43.66412" lon="-0.06793">
        <ele>108</ele>
        <time>2021-03-01T10:02:01Z</time>
      </trkpt>
      <trkpt lat="43.66408" lon="-0.06796">
        <ele>108</ele>
        <time>2021-03-01T10:02:20Z</time>
      </trkpt>
      <trkpt lat="43.66392" lon="-0.06788">
        <ele>108</ele>
        <time>2021-03-01T10:02:36Z</time>
      </trkpt>
      <trkpt lat="43.66364" lon="-0.0678">
        <ele>108</ele>
        <time>2021-03-01T10:03:00Z</time>
      </trkpt>
      <trkpt lat="43.66325" lon="-0.06785">
        <ele>107</ele>
        <time>2021-03-01T10:03:32Z</time>
      </trkpt>
      <trkpt lat="43.66307" lon="-0.06793">
        <ele>107</ele>
        <time>2021-03-01T10:03:47Z</time>
      </trkpt>
      <trkpt lat="43.66303" lon="-0.06796">
        <ele>107</ele>
        <time>2021-03-01T10:03:52Z</time>
      </trkpt>
      <trkpt lat="43.66291" lon="-0.06816">
        <ele>107</ele>
        <time>2021-03-01T10:04:06Z</time>
      </trkpt>
      <trkpt lat="43.66287" lon="-0.06829">
        <ele>107</ele>
        <time>2021-03-01T10:04:14Z</time>
      </trkpt>
      <trkpt lat="43.66288" lon="-0.06841">
        <ele>107</ele>
        <time>2021-03-01T10:04:33Z</time>
      </trkpt>
      <trkpt lat="43.66288" lon="-0.06847">
        <ele>107</ele>
        <time>2021-03-01T10:04:37Z</time>
      </trkpt>
      <trkpt lat="43.66286" lon="-0.06855">
        <ele>106</ele>
        <time>2021-03-01T10:04:44Z</time>
      </trkpt>
      <trkpt lat="43.66286" lon="-0.06875">
        <ele>106</ele>
        <time>2021-03-01T10:04:57Z</time>
      </trkpt>
      <trkpt lat="43.66287" lon="-0.06881">
        <ele>106</ele>
        <time>2021-03-01T10:05:00Z</time>
      </trkpt>
      <trkpt lat="43.66281" lon="-0.06897">
        <ele>107</ele>
        <time>2021-03-01T10:05:13Z</time>
      </trkpt>
      <trkpt lat="43.66281" lon="-0.06912">
        <ele>107</ele>
        <time>2021-03-01T10:05:22Z</time>
      </trkpt>
      <trkpt lat="43.66277" lon="-0.06923">
        <ele>106</ele>
        <time>2021-03-01T10:05:29Z</time>
      </trkpt>
      <trkpt lat="43.66274" lon="-0.0693">
        <ele>106</ele>
        <time>2021-03-01T10:05:33Z</time>
      </trkpt>
      <trkpt lat="43.66269" lon="-0.06949">
        <ele>106</ele>
        <time>2021-03-01T10:05:45Z</time>
      </trkpt>
      <trkpt lat="43.66267" lon="-0.06956">
        <ele>106</ele>
        <time>2021-03-01T10:05:49Z</time>
      </trkpt>
      <trkpt lat="43.66252" lon="-0.06992">
        <ele>106</ele>
        <time>2021-03-01T10:06:15Z</time>
      </trkpt>
      <trkpt lat="43.66245" lon="-0.07">
        <ele>106</ele>
        <time>2021-03-01T10:06:23Z</time>
      </trkpt>
      <trkpt lat="43.66238" lon="-0.07016">
        <ele>106</ele>
        <time>2021-03-01T10:06:34Z</time>
      </trkpt>
      <trkpt lat="43.66229" lon="-0.07031">
        <ele>106</ele>
        <time>2021-03-01T10:06:43Z</time>
      </trkpt>
      <trkpt lat="43.66226" lon="-0.07037">
        <ele>106</ele>
        <time>2021-03-01T10:06:47Z</time>
      </trkpt>
      <trkpt lat="43.66225" lon="-0.07042">
        <ele>106</ele>
        <time>2021-03-01T10:06:50Z</time>
      </trkpt>
      <trkpt lat="43.66226" lon="-0.07049">
        <ele>106</ele>
        <time>2021-03-01T10:06:53Z</time>
      </trkpt>
      <trkpt lat="43.66229" lon="-0.07062">
        <ele>106</ele>
        <time>2021-03-01T10:07:00Z</time>
      </trkpt>
      <trkpt lat="43.66234" lon="-0.07073">
        <ele>106</ele>
        <time>2021-03-01T10:07:05Z</time>
      </trkpt>
      <trkpt lat="43.66237" lon="-0.07077">
        <ele>106</ele>
        <time>2021-03-01T10:07:09Z</time>
      </trkpt>
      <trkpt lat="43.66239" lon="-0.07084">
        <ele>106</ele>
        <time>2021-03-01T10:07:17Z</time>
      </trkpt>
      <trkpt lat="43.66241" lon="-0.07103">
        <ele>106</ele>
        <time>2021-03-01T10:07:30Z</time>
      </trkpt>
      <trkpt lat="43.66245" lon="-0.07109">
        <ele>106</ele>
        <time>2021-03-01T10:07:34Z</time>
      </trkpt>
      <trkpt lat="43.66245" lon="-0.07115">
        <ele>106</ele>
        <time>2021-03-01T10:07:42Z</time>
      </trkpt>
      <trkpt lat="43.66239" lon="-0.07125">
        <ele>106</ele>
        <time>2021-03-01T10:07:51Z</time>
      </trkpt>
      <trkpt lat="43.66234" lon="-0.07129">
        <ele>106</ele>
        <time>2021-03-01T10:07:55Z</time>
      </trkpt>
      <trkpt lat="43.66233" lon="-0.07148">
        <ele>106</ele>
        <time>2021-03-01T10:08:04Z</time>
      </trkpt>
      <trkpt lat="43.66234" lon="-0.07153">
        <ele>106</ele>
        <time>2021-03-01T10:08:07Z</time>
      </trkpt>
      <trkpt lat="43.66232" lon="-0.07166">
        <ele>106</ele>
        <time>2021-03-01T10:08:14Z</time>
      </trkpt>
      <trkpt lat="43.6623" lon="-0.07176">
        <ele>106</ele>
        <time>2021-03-01T10:08:21Z</time>
      </trkpt>
      <trkpt lat="43.66229" lon="-0.07183">
        <ele>105</ele>
        <time>2021-03-01T10:08:25Z</time>
      </trkpt>
      <trkpt lat="43.66228" lon="-0.07213">
        <ele>105</ele>
        <time>2021-03-01T10:08:43Z</time>
      </trkpt>
      <trkpt lat="43.66224" lon="-0.07234">
        <ele>104</ele>
        <time>2021-03-01T10:08:58Z</time>
      </trkpt>
      <trkpt lat="43.66223" lon="-0.0724">
        <ele>104</ele>
        <time>2021-03-01T10:09:01Z</time>
      </trkpt>
      <trkpt lat="43.66223" lon="-0.07245">
        <ele>104</ele>
        <time>2021-03-01T10:09:04Z</time>
      </trkpt>
      <trkpt lat="43.66227" lon="-0.07261">
        <ele>105</ele>
        <time>2021-03-01T10:09:12Z</time>
      </trkpt>
      <trkpt lat="43.6623" lon="-0.07266">
        <ele>105</ele>
        <time>2021-03-01T10:09:15Z</time>
      </trkpt>
      <trkpt lat="43.66233" lon="-0.07278">
        <ele>105</ele>
        <time>2021-03-01T10:09:23Z</time>
      </trkpt>
      <trkpt lat="43.66232" lon="-0.07294">
        <ele>106</ele>
        <time>2021-03-01T10:09:33Z</time>
      </trkpt>
      <trkpt lat="43.66232" lon="-0.07342">
        <ele>106</ele>
        <time>2021-03-01T10:10:06Z</time>
      </trkpt>
      <trkpt lat="43.66232" lon="-0.07349">
        <ele>106</ele>
        <time>2021-03-01T10:10:10Z</time>
      </trkpt>
      <trkpt lat="43.66236" lon="-0.07373">
        <ele>105</ele>
        <time>2021-03-01T10:10:25Z</time>
      </trkpt>
      <trkpt lat="43.66243" lon="-0.0739">
        <ele>105</ele>
        <time>2021-03-01T10:10:35Z</time>
      </trkpt>
      <trkpt lat="43.66245" lon="-0.07401">
        <ele>105</ele>
        <time>2021-03-01T10:10:44Z</time>
      </trkpt>
      <trkpt lat="43.66247" lon="-0.07424">
        <ele>105</ele>
        <time>2021-03-01T10:11:03Z</time>
      </trkpt>
      <trkpt lat="43.66248" lon="-0.0743">
        <ele>105</ele>
        <time>2021-03-01T10:11:11Z</time>
      </trkpt>
      <trkpt lat="43.66249" lon="-0.07436">
        <ele>105</ele>
        <time>2021-03-01T10:11:14Z</time>
      </trkpt>
      <trkpt lat="43.66251" lon="-0.07443">
        <ele>105</ele>
        <time>2021-03-01T10:11:17Z</time>
      </trkpt>
      <trkpt lat="43.66252" lon="-0.07469">
        <ele>105</ele>
        <time>2021-03-01T10:11:34Z</time>
      </trkpt>
      <trkpt lat="43.66253" lon="-0.07474">
        <ele>105</ele>
        <time>2021-03-01T10:11:37Z</time>
      </trkpt>
      <trkpt lat="43.66256" lon="-0.0748">
        <ele>105</ele>
        <time>2021-03-01T10:11:41Z</time>
      </trkpt>
      <trkpt lat="43.66259" lon="-0.07505">
        <ele>105</ele>
        <time>2021-03-01T10:11:56Z</time>
      </trkpt>
      <trkpt lat="43.66252" lon="-0.07533">
        <ele>105</ele>
        <time>2021-03-01T10:12:16Z</time>
      </trkpt>
      <trkpt lat="43.66253" lon="-0.07552">
        <ele>104</ele>
        <time>2021-03-01T10:12:27Z</time>
      </trkpt>
      <trkpt lat="43.66253" lon="-0.07571">
        <ele>104</ele>
        <time>2021-03-01T10:12:48Z</time>
      </trkpt>
      <trkpt lat="43.66257" lon="-0.07593">
        <ele>104</ele>
        <time>2021-03-01T10:13:02Z</time>
      </trkpt>
      <trkpt lat="43.66255" lon="-0.07604">
        <ele>105</ele>
        <time>2021-03-01T10:13:12Z</time>
      </trkpt>
      <trkpt lat="43.66252" lon="-0.07617">
        <ele>105</ele>
        <time>2021-03-01T10:13:20Z</time>
      </trkpt>
      <trkpt lat="43.6625" lon="-0.07629">
        <ele>105</ele>
        <time>2021-03-01T10:13:33Z</time>
      </trkpt>
      <trkpt lat="43.6625" lon="-0.07629">
        <ele>105</ele>
        <time>2021-03-01T10:15:20Z</time>
      </trkpt>
      <trkpt lat="43.66246" lon="-0.07637">
        <ele>105</ele>
        <time>2021-03-01T10:15:39Z</time>
      </trkpt>
      <trkpt lat="43.66243" lon="-0.07641">
        <ele>105</ele>
        <time>2021-03-01T10:15:47Z</time>
      </trkpt>
      <trkpt lat="43.66238" lon="-0.07643">
        <ele>105</ele>
        <time>2021-03-01T10:15:52Z</time>
      </trkpt>
      <trkpt lat="43.66226" lon="-0.07651">
        <ele>104</ele>
        <time>2021-03-01T10:16:06Z</time>
      </trkpt>
      <trkpt lat="43.66225" lon="-0.07656">
        <ele>104</ele>
        <time>2021-03-01T10:16:08Z</time>
      </trkpt>
      <trkpt lat="43.66219" lon="-0.07664">
        <ele>105</ele>
        <time>2021-03-01T10:16:18Z</time>
      </trkpt>
      <trkpt lat="43.6622" lon="-0.07665">
        <ele>104</ele>
        <time>2021-03-01T10:16:51Z</time>
      </trkpt>
      <trkpt lat="43.66226" lon="-0.07655">
        <ele>105</ele>
        <time>2021-03-01T10:17:03Z</time>
      </trkpt>
      <trkpt lat="43.66229" lon="-0.07653">
        <ele>105</ele>
        <time>2021-03-01T10:17:07Z</time>
      </trkpt>
      <trkpt lat="43.66239" lon="-0.07648">
        <ele>104</ele>
        <time>2021-03-01T10:17:18Z</time>
      </trkpt>
      <trkpt lat="43.66243" lon="-0.07646">
        <ele>104</ele>
        <time>2021-03-01T10:17:21Z</time>
      </trkpt>
      <trkpt lat="43.66246" lon="-0.07642">
        <ele>104</ele>
        <time>2021-03-01T10:17:25Z</time>
      </trkpt>
      <trkpt lat="43.66252" lon="-0.07635">
        <ele>105</ele>
        <time>2021-03-01T10:17:33Z</time>
      </trkpt>
      <trkpt lat="43.66254" lon="-0.07624">
        <ele>105</ele>
        <time>2021-03-01T10:17:45Z</time>
      </trkpt>
      <trkpt lat="43.66252" lon="-0.07628">
        <ele>105</ele>
        <time>2021-03-01T10:17:50Z</time>
      </trkpt>
      <trkpt lat="43.66255" lon="-0.07634">
        <ele>105</ele>
        <time>2021-03-01T10:17:55Z</time>
      </trkpt>
      <trkpt lat="43.66259" lon="-0.07634">
        <ele>105</ele>
        <time>2021-03-01T10:17:58Z</time>
      </trkpt>
      <trkpt lat="43.66272" lon="-0.07628">
        <ele>105</ele>
        <time>2021-03-01T10:18:10Z</time>
      </trkpt>
      <trkpt lat="43.66281" lon="-0.07617">
        <ele>105</ele>
        <time>2021-03-01T10:18:19Z</time>
      </trkpt>
      <trkpt lat="43.66289" lon="-0.07611">
        <ele>105</ele>
        <time>2021-03-01T10:18:26Z</time>
      </trkpt>
      <trkpt lat="43.66296" lon="-0.076">
        <ele>105</ele>
        <time>2021-03-01T10:18:33Z</time>
      </trkpt>
      <trkpt lat="43.66302" lon="-0.07578">
        <ele>105</ele>
        <time>2021-03-01T10:18:49Z</time>
      </trkpt>
      <trkpt lat="43.66316" lon="-0.07558">
        <ele>105</ele>
        <time>2021-03-01T10:19:06Z</time>
      </trkpt>
      <trkpt lat="43.66326" lon="-0.07526">
        <ele>105</ele>
        <time>2021-03-01T10:19:28Z</time>
      </trkpt>
      <trkpt lat="43.66329" lon="-0.0752">
        <ele>105</ele>
        <time>2021-03-01T10:19:33Z</time>
      </trkpt>
      <trkpt lat="43.6633" lon="-0.07514">
        <ele>105</ele>
        <time>2021-03-01T10:19:37Z</time>
      </trkpt>
      <trkpt lat="43.66334" lon="-0.07503">
        <ele>105</ele>
        <time>2021-03-01T10:19:44Z</time>
      </trkpt>
      <trkpt lat="43.66338" lon="-0.07498">
        <ele>105</ele>
        <time>2021-03-01T10:19:48Z</time>
      </trkpt>
      <trkpt lat="43.66341" lon="-0.07487">
        <ele>105</ele>
        <time>2021-03-01T10:19:55Z</time>
      </trkpt>
      <trkpt lat="43.66341" lon="-0.07479">
        <ele>105</ele>
        <time>2021-03-01T10:19:58Z</time>
      </trkpt>
      <trkpt lat="43.6635" lon="-0.07443">
        <ele>105</ele>
        <time>2021-03-01T10:20:24Z</time>
      </trkpt>
      <trkpt lat="43.6635" lon="-0.07435">
        <ele>105</ele>
        <time>2021-03-01T10:20:28Z</time>
      </trkpt>
      <trkpt lat="43.66355" lon="-0.07423">
        <ele>105</ele>
        <time>2021-03-01T10:20:35Z</time>
      </trkpt>
      <trkpt lat="43.66359" lon="-0.07414">
        <ele>105</ele>
        <time>2021-03-01T10:20:42Z</time>
      </trkpt>
      <trkpt lat="43.66364" lon="-0.07407">
        <ele>105</ele>
        <time>2021-03-01T10:20:50Z</time>
      </trkpt>
      <trkpt lat="43.66368" lon="-0.07405">
        <ele>105</ele>
        <time>2021-03-01T10:20:54Z</time>
      </trkpt>
      <trkpt lat="43.66381" lon="-0.07393">
        <ele>105</ele>
        <time>2021-03-01T10:21:07Z</time>
      </trkpt>
      <trkpt lat="43.66389" lon="-0.07388">
        <ele>105</ele>
        <time>2021-03-01T10:21:17Z</time>
      </trkpt>
      <trkpt lat="43.66392" lon="-0.07389">
        <ele>105</ele>
        <time>2021-03-01T10:21:23Z</time>
      </trkpt>
      <trkpt lat="43.66388" lon="-0.07403">
        <ele>105</ele>
        <time>2021-03-01T10:21:36Z</time>
      </trkpt>
      <trkpt lat="43.66388" lon="-0.07408">
        <ele>105</ele>
        <time>2021-03-01T10:21:39Z</time>
      </trkpt>
      <trkpt lat="43.66385" lon="-0.07421">
        <ele>105</ele>
        <time>2021-03-01T10:21:48Z</time>
      </trkpt>
      <trkpt lat="43.66391" lon="-0.07415">
        <ele>105</ele>
        <time>2021-03-01T10:22:01Z</time>
      </trkpt>
      <trkpt lat="43.66392" lon="-0.0741">
        <ele>105</ele>
        <time>2021-03-01T10:22:04Z</time>
      </trkpt>
      <trkpt lat="43.66393" lon="-0.07405">
        <ele>105</ele>
        <time>2021-03-01T10:22:07Z</time>
      </trkpt>
      <trkpt lat="43.66393" lon="-0.07399">
        <ele>105</ele>
        <time>2021-03-01T10:22:11Z</time>
      </trkpt>
      <trkpt lat="43.66396" lon="-0.07393">
        <ele>105</ele>
        <time>2021-03-01T10:22:18Z</time>
      </trkpt>
      <trkpt lat="43.66403" lon="-0.07398">
        <ele>105</ele>
        <time>2021-03-01T10:22:31Z</time>
      </trkpt>
      <trkpt lat="43.66403" lon="-0.07406">
        <ele>106</ele>
        <time>2021-03-01T10:22:38Z</time>
      </trkpt>
      <trkpt lat="43.66402" lon="-0.07411">
        <ele>106</ele>
        <time>2021-03-01T10:22:42Z</time>
      </trkpt>
      <trkpt lat="43.66403" lon="-0.07417">
        <ele>106</ele>
        <time>2021-03-01T10:22:47Z</time>
      </trkpt>
      <trkpt lat="43.66404" lon="-0.07423">
        <ele>106</ele>
        <time>2021-03-01T10:22:51Z</time>
      </trkpt>
      <trkpt lat="43.66405" lon="-0.0743">
        <ele>106</ele>
        <time>2021-03-01T10:22:55Z</time>
      </trkpt>
      <trkpt lat="43.66405" lon="-0.07437">
        <ele>106</ele>
        <time>2021-03-01T10:22:59Z</time>
      </trkpt>
      <trkpt lat="43.66406" lon="-0.07443">
        <ele>106</ele>
        <time>2021-03-01T10:23:03Z</time>
      </trkpt>
      <trkpt lat="43.66409" lon="-0.0745">
        <ele>106</ele>
        <time>2021-03-01T10:23:08Z</time>
      </trkpt>
      <trkpt lat="43.66412" lon="-0.07455">
        <ele>105</ele>
        <time>2021-03-01T10:23:12Z</time>
      </trkpt>
      <trkpt lat="43.66411" lon="-0.0747">
        <ele>105</ele>
        <time>2021-03-01T10:23:23Z</time>
      </trkpt>
      <trkpt lat="43.66413" lon="-0.07477">
        <ele>105</ele>
        <time>2021-03-01T10:23:27Z</time>
      </trkpt>
      <trkpt lat="43.66415" lon="-0.07487">
        <ele>105</ele>
        <time>2021-03-01T10:23:33Z</time>
      </trkpt>
      <trkpt lat="43.66417" lon="-0.07492">
        <ele>105</ele>
        <time>2021-03-01T10:23:37Z</time>
      </trkpt>
      <trkpt lat="43.66415" lon="-0.07506">
        <ele>105</ele>
        <time>2021-03-01T10:23:47Z</time>
      </trkpt>
      <trkpt lat="43.66417" lon="-0.07511">
        <ele>105</ele>
        <time>2021-03-01T10:23:51Z</time>
      </trkpt>
      <trkpt lat="43.66414" lon="-0.07509">
        <ele>105</ele>
        <time>2021-03-01T10:24:16Z</time>
      </trkpt>
      <trkpt lat="43.66408" lon="-0.07524">
        <ele>105</ele>
        <time>2021-03-01T10:24:29Z</time>
      </trkpt>
      <trkpt lat="43.66406" lon="-0.07531">
        <ele>105</ele>
        <time>2021-03-01T10:24:36Z</time>
      </trkpt>
      <trkpt lat="43.66392" lon="-0.07553">
        <ele>105</ele>
        <time>2021-03-01T10:24:53Z</time>
      </trkpt>
      <trkpt lat="43.6638" lon="-0.07593">
        <ele>105</ele>
        <time>2021-03-01T10:25:18Z</time>
      </trkpt>
      <trkpt lat="43.66379" lon="-0.07621">
        <ele>105</ele>
        <time>2021-03-01T10:25:34Z</time>
      </trkpt>
      <trkpt lat="43.66381" lon="-0.07628">
        <ele>105</ele>
        <time>2021-03-01T10:25:38Z</time>
      </trkpt>
      <trkpt lat="43.66382" lon="-0.07633">
        <ele>105</ele>
        <time>2021-03-01T10:25:43Z</time>
      </trkpt>
      <trkpt lat="43.66383" lon="-0.07638">
        <ele>105</ele>
        <time>2021-03-01T10:25:47Z</time>
      </trkpt>
      <trkpt lat="43.66379" lon="-0.07652">
        <ele>105</ele>
        <time>2021-03-01T10:25:58Z</time>
      </trkpt>
      <trkpt lat="43.66379" lon="-0.07658">
        <ele>105</ele>
        <time>2021-03-01T10:26:01Z</time>
      </trkpt>
      <trkpt lat="43.66377" lon="-0.07664">
        <ele>105</ele>
        <time>2021-03-01T10:26:05Z</time>
      </trkpt>
      <trkpt lat="43.66377" lon="-0.07673">
        <ele>105</ele>
        <time>2021-03-01T10:26:11Z</time>
      </trkpt>
      <trkpt lat="43.66374" lon="-0.07684">
        <ele>106</ele>
        <time>2021-03-01T10:26:21Z</time>
      </trkpt>
      <trkpt lat="43.6637" lon="-0.0769">
        <ele>106</ele>
        <time>2021-03-01T10:26:27Z</time>
      </trkpt>
      <trkpt lat="43.66364" lon="-0.07702">
        <ele>105</ele>
        <time>2021-03-01T10:26:38Z</time>
      </trkpt>
      <trkpt lat="43.66359" lon="-0.07711">
        <ele>105</ele>
        <time>2021-03-01T10:26:48Z</time>
      </trkpt>
      <trkpt lat="43.66357" lon="-0.07716">
        <ele>105</ele>
        <time>2021-03-01T10:26:51Z</time>
      </trkpt>
      <trkpt lat="43.66351" lon="-0.07724">
        <ele>104</ele>
        <time>2021-03-01T10:27:01Z</time>
      </trkpt>
      <trkpt lat="43.66347" lon="-0.07726">
        <ele>104</ele>
        <time>2021-03-01T10:27:05Z</time>
      </trkpt>
      <trkpt lat="43.66343" lon="-0.07728">
        <ele>105</ele>
        <time>2021-03-01T10:27:08Z</time>
      </trkpt>
      <trkpt lat="43.6634" lon="-0.07733">
        <ele>105</ele>
        <time>2021-03-01T10:27:12Z</time>
      </trkpt>
      <trkpt lat="43.66338" lon="-0.07737">
        <ele>105</ele>
        <time>2021-03-01T10:27:15Z</time>
      </trkpt>
      <trkpt lat="43.66334" lon="-0.07743">
        <ele>105</ele>
        <time>2021-03-01T10:27:21Z</time>
      </trkpt>
      <trkpt lat="43.6633" lon="-0.07745">
        <ele>105</ele>
        <time>2021-03-01T10:27:25Z</time>
      </trkpt>
      <trkpt lat="43.66325" lon="-0.07745">
        <ele>105</ele>
        <time>2021-03-01T10:27:28Z</time>
      </trkpt>
      <trkpt lat="43.66311" lon="-0.07751">
        <ele>105</ele>
        <time>2021-03-01T10:27:44Z</time>
      </trkpt>
      <trkpt lat="43.66308" lon="-0.07755">
        <ele>105</ele>
        <time>2021-03-01T10:27:49Z</time>
      </trkpt>
      <trkpt lat="43.66303" lon="-0.07754">
        <ele>104</ele>
        <time>2021-03-01T10:27:54Z</time>
      </trkpt>
      <trkpt lat="43.66294" lon="-0.07759">
        <ele>104</ele>
        <time>2021-03-01T10:28:02Z</time>
      </trkpt>
      <trkpt lat="43.6629" lon="-0.0776">
        <ele>104</ele>
        <time>2021-03-01T10:28:05Z</time>
      </trkpt>
      <trkpt lat="43.66286" lon="-0.07765">
        <ele>104</ele>
        <time>2021-03-01T10:28:09Z</time>
      </trkpt>
      <trkpt lat="43.66282" lon="-0.07771">
        <ele>104</ele>
        <time>2021-03-01T10:28:15Z</time>
      </trkpt>
      <trkpt lat="43.6628" lon="-0.07777">
        <ele>105</ele>
        <time>2021-03-01T10:28:19Z</time>
      </trkpt>
      <trkpt lat="43.66279" lon="-0.07783">
        <ele>105</ele>
        <time>2021-03-01T10:28:23Z</time>
      </trkpt>
      <trkpt lat="43.66277" lon="-0.07788">
        <ele>105</ele>
        <time>2021-03-01T10:28:27Z</time>
      </trkpt>
      <trkpt lat="43.66272" lon="-0.07788">
        <ele>106</ele>
        <time>2021-03-01T10:28:41Z</time>
      </trkpt>
      <trkpt lat="43.66268" lon="-0.0779">
        <ele>106</ele>
        <time>2021-03-01T10:28:44Z</time>
      </trkpt>
      <trkpt lat="43.66263" lon="-0.07794">
        <ele>106</ele>
        <time>2021-03-01T10:28:48Z</time>
      </trkpt>
      <trkpt lat="43.66262" lon="-0.07801">
        <ele>105</ele>
        <time>2021-03-01T10:28:52Z</time>
      </trkpt>
      <trkpt lat="43.66256" lon="-0.0781">
        <ele>104</ele>
        <time>2021-03-01T10:29:02Z</time>
      </trkpt>
      <trkpt lat="43.66249" lon="-0.07808">
        <ele>105</ele>
        <time>2021-03-01T10:29:09Z</time>
      </trkpt>
      <trkpt lat="43.66244" lon="-0.07811">
        <ele>106</ele>
        <time>2021-03-01T10:29:16Z</time>
      </trkpt>
      <trkpt lat="43.66239" lon="-0.07812">
        <ele>105</ele>
        <time>2021-03-01T10:29:20Z</time>
      </trkpt>
      <trkpt lat="43.66229" lon="-0.07827">
        <ele>106</ele>
        <time>2021-03-01T10:29:34Z</time>
      </trkpt>
      <trkpt lat="43.66226" lon="-0.07832">
        <ele>105</ele>
        <time>2021-03-01T10:29:37Z</time>
      </trkpt>
      <trkpt lat="43.66225" lon="-0.07836">
        <ele>105</ele>
        <time>2021-03-01T10:29:41Z</time>
      </trkpt>
      <trkpt lat="43.66226" lon="-0.07843">
        <ele>105</ele>
        <time>2021-03-01T10:29:48Z</time>
      </trkpt>
      <trkpt lat="43.66233" lon="-0.07846">
        <ele>106</ele>
        <time>2021-03-01T10:30:18Z</time>
      </trkpt>
      <trkpt lat="43.66238" lon="-0.07851">
        <ele>106</ele>
        <time>2021-03-01T10:30:22Z</time>
      </trkpt>
      <trkpt lat="43.66239" lon="-0.07856">
        <ele>106</ele>
        <time>2021-03-01T10:30:25Z</time>
      </trkpt>
      <trkpt lat="43.66251" lon="-0.07873">
        <ele>105</ele>
        <time>2021-03-01T10:30:48Z</time>
      </trkpt>
      <trkpt lat="43.66256" lon="-0.07877">
        <ele>105</ele>
        <time>2021-03-01T10:30:52Z</time>
      </trkpt>
      <trkpt lat="43.66258" lon="-0.07882">
        <ele>105</ele>
        <time>2021-03-01T10:30:57Z</time>
      </trkpt>
      <trkpt lat="43.66279" lon="-0.07896">
        <ele>104</ele>
        <time>2021-03-01T10:31:15Z</time>
      </trkpt>
      <trkpt lat="43.66282" lon="-0.079">
        <ele>104</ele>
        <time>2021-03-01T10:31:18Z</time>
      </trkpt>
      <trkpt lat="43.66293" lon="-0.0793">
        <ele>104</ele>
        <time>2021-03-01T10:31:40Z</time>
      </trkpt>
      <trkpt lat="43.66304" lon="-0.07943">
        <ele>104</ele>
        <time>2021-03-01T10:31:52Z</time>
      </trkpt>
      <trkpt lat="43.66309" lon="-0.07952">
        <ele>104</ele>
        <time>2021-03-01T10:32:00Z</time>
      </trkpt>
      <trkpt lat="43.66313" lon="-0.07957">
        <ele>104</ele>
        <time>2021-03-01T10:32:04Z</time>
      </trkpt>
      <trkpt lat="43.66316" lon="-0.07962">
        <ele>104</ele>
        <time>2021-03-01T10:32:08Z</time>
      </trkpt>
      <trkpt lat="43.66324" lon="-0.07967">
        <ele>104</ele>
        <time>2021-03-01T10:32:15Z</time>
      </trkpt>
      <trkpt lat="43.66326" lon="-0.07972">
        <ele>104</ele>
        <time>2021-03-01T10:32:18Z</time>
      </trkpt>
      <trkpt lat="43.6633" lon="-0.07975">
        <ele>104</ele>
        <time>2021-03-01T10:32:22Z</time>
      </trkpt>
      <trkpt lat="43.66332" lon="-0.07985">
        <ele>103</ele>
        <time>2021-03-01T10:32:30Z</time>
      </trkpt>
      <trkpt lat="43.66334" lon="-0.0799">
        <ele>104</ele>
        <time>2021-03-01T10:32:33Z</time>
      </trkpt>
      <trkpt lat="43.66355" lon="-0.08016">
        <ele>103</ele>
        <time>2021-03-01T10:32:54Z</time>
      </trkpt>
      <trkpt lat="43.66373" lon="-0.08055">
        <ele>103</ele>
        <time>2021-03-01T10:33:25Z</time>
      </trkpt>
      <trkpt lat="43.66376" lon="-0.08061">
        <ele>103</ele>
        <time>2021-03-01T10:33:29Z</time>
      </trkpt>
      <trkpt lat="43.66379" lon="-0.08065">
        <ele>103</ele>
        <time>2021-03-01T10:33:32Z</time>
      </trkpt>
      <trkpt lat="43.66383" lon="-0.08069">
        <ele>103</ele>
        <time>2021-03-01T10:33:36Z</time>
      </trkpt>
      <trkpt lat="43.66395" lon="-0.08088">
        <ele>103</ele>
        <time>2021-03-01T10:33:54Z</time>
      </trkpt>
      <trkpt lat="43.66409" lon="-0.0812">
        <ele>103</ele>
        <time>2021-03-01T10:34:20Z</time>
      </trkpt>
      <trkpt lat="43.66425" lon="-0.08133">
        <ele>103</ele>
        <time>2021-03-01T10:34:39Z</time>
      </trkpt>
      <trkpt lat="43.6643" lon="-0.08135">
        <ele>104</ele>
        <time>2021-03-01T10:34:43Z</time>
      </trkpt>
      <trkpt lat="43.66438" lon="-0.08135">
        <ele>104</ele>
        <time>2021-03-01T10:34:51Z</time>
      </trkpt>
      <trkpt lat="43.66443" lon="-0.08134">
        <ele>105</ele>
        <time>2021-03-01T10:35:05Z</time>
      </trkpt>
      <trkpt lat="43.66447" lon="-0.08131">
        <ele>107</ele>
        <time>2021-03-01T10:35:23Z</time>
      </trkpt>
      <trkpt lat="43.6645" lon="-0.08139">
        <ele>107</ele>
        <time>2021-03-01T10:35:38Z</time>
      </trkpt>
      <trkpt lat="43.66447" lon="-0.08148">
        <ele>107</ele>
        <time>2021-03-01T10:35:46Z</time>
      </trkpt>
      <trkpt lat="43.66452" lon="-0.08145">
        <ele>107</ele>
        <time>2021-03-01T10:35:52Z</time>
      </trkpt>
    </trkseg>
  </trk>
</gpx>